Está en la página 1de 78

Velocidad

Temperatura (°c)
Día/mes/año Humedad (%) Lluvia (mm) Presion (mb) del
Prom Max Min Viento (m/s)
12/1/2013 12.31 17.9 9.6 77.96 5.2 701.79 2.65
12/2/2013 12.06 18.7 9 80.83 5.3 702.08 1.61
12/3/2013 12.8 21.1 9 79.5 16.5 701.97 2.08
12/4/2013 13.42 20.4 8.8 75.46 9.9 702.48 2.73
12/5/2013 12.11 20.5 9 78.29 12.2 703.01 2.91
12/6/2013 12.19 18.5 7.4 76.25 2.1 701.93 2.1
12/7/2013 11.89 14.4 10.3 82.5 1 701.75 2.12
12/8/2013 11.98 17.3 8.7 80.79 1.1 701.31 1.81
12/9/2013 12.64 19.3 9.7 78.17 3.6 701.54 1.96
12/10/2013 13.08 18.5 10.2 78.35 1.8 702.57 1.9
12/11/2013 13.94 21.8 9.4 72.08 0.3 631.44 2.21
12/12/2013 13.87 19.9 10 72.54 2.7 701.56 2.27
12/13/2013 13.74 22.8 7.9 67.42 5.4 700.4 2.43
12/14/2013 14.52 22.1 9.8 67 0.4 700.17 3.43
12/15/2013 14.38 22.2 9.8 71.08 2.1 701.3 2.82
12/16/2013 14.22 21.2 10.2 71.8 1.1 701.99 2.03
12/17/2013 14.57 22 11.6 68.3 0.4 700.81 3
12/18/2013 15.62 24.9 8 64.57 0.1 700 2.58
12/19/2013 15.3 24.3 9.8 64.17 0.6 699.58 2.86
12/20/2013 15.73 26.5 9 68.96 0 699.4 2.24
12/21/2013 17.39 26.2 9.8 54.04 0 699.57 2.54
12/22/2013 16.85 26.8 10.1 53.54 0 700.48 2.38
12/23/2013 15.85 25.2 8.9 51.04 0 700.58 2.02
12/24/2013 16.03 24.5 7.8 41.21 0 699.86 3.13
12/25/2013 16.49 24.4 10.5 44.71 0 699.89 3.43
12/26/2013 17.19 25.4 11.1 51.96 0 701.06 2.73
12/27/2013 17.8 25.1 11.9 53.04 0 702.12 2.85
12/28/2013 16.77 22.9 11.4 55.88 0 702.01 3.22
12/29/2013 16.8 26.9 10.2 57.58 0 701.25 2.5
12/30/2013 18.37 26.8 10.2 50.21 0 700.29 2.41
12/31/2013 15.71 25.8 9.7 59.63 2.1 701.68 3.36
1/1/2014 14.45 24.4 7.4 60.17 0.9 700.77 2.94
1/2/2014 13.77 24.9 7.4 69.79 3.8 700.3 2.54
1/3/2014 15.02 23.5 6.5 58.5 0.1 699.83 2.74
1/4/2014 15.87 25.2 10.9 63.58 12.5 700.8 2.13
1/5/2014 12.46 17.6 9.8 82.17 3.6 702.64 1.7
1/6/2014 11.9 16.8 10.1 85.5 2.8 701.95 2.03
1/7/2014 13.32 21.7 10 79.83 6.5 700.86 2.08
1/8/2014 11.92 20.3 9.3 83.92 9.3 701.32 2.1
1/9/2014 8.6 -361.35
1/10/2014 9.6 31.71 629.57
1/11/2014 13.54 18.5 10.4 79.04 0.4 701.15 2.18
1/12/2014 13.14 19.3 11 81.79 0.4 702.7 1.68
1/13/2014 13.77 19.5 10.1 73.54 0.1 702.91 1.2
1/14/2014 13.95 19.7 10.2 73.29 0.4 702.25 2.03
1/15/2014 14.72 20.3 11.3 68.04 0 630.27 2.27
1/16/2014 15.62 22.8 10.1 63.91 0.3 700.58 3
1/17/2014 14.73 21.8 10.5 67.79 0.4 701.98 3.1
1/18/2014 12.95 18.1 11 79.71 1 702.92 2.01
1/19/2014 14.13 19.7 9.2 68.29 0.1 702.66 2.3
1/20/2014 15.25 23.8 9.8 67.63 0.7 701.85 3.57
1/21/2014 15.52 24.2 7.1 66 0.2 701.42 2.87
1/22/2014 14.47 24 7.5 67.13 0.1 701.55 2.2
1/23/2014 14.63 23.2 10 69.58 0.5 701.85 2.24
1/24/2014 15.3 23.5 11 70.83 0 702.06 2.79
1/25/2014 15.02 23.8 10.7 79.58 1.2 701.46 2.46
1/26/2014 15.45 24.6 7.2 65.54 0 699.73 2.77
1/27/2014 17.41 25 11.3 51.5 0 699.7 3.11
1/28/2014 15.35 23.8 9.1 62.92 0 700.58 2.63
1/29/2014 16.78 25.2 9 55.58 0 699.2 3.09
1/30/2014 15.75 20.6 13.4 64.25 0 700.18 3.17
1/31/2014 16.1 23 11.9 64.5 1.4 700.33 3.3
2/1/2014 14.54 21.6 11.1 78.25 3.5 700.75 2.39
2/2/2014 15.85 24.6 10.8 69.42 0.8 700.93 3.47
2/3/2014 15 25.9 9 73.57 0.7 700.75 1.88
2/4/2014 14.3 26.1 9.2 72.21 0.1 700.16 1.84
2/5/2014 14.3 24.6 7.2 65.92 0 700.36 2.72
2/6/2014 15.04 24.8 10.2 72.67 5.2 629.95 3.23
2/7/2014 14.92 22 11.2 72.58 0 701.17 2.72
2/8/2014 15.55 21.8 11.9 70.42 0 700.4 3.03
2/9/2014 16.95 24 12.1 61.83 0 699.98 2.45
2/10/2014 14.11 22.1 10.6 76.33 2.4 701.28 2.91
2/11/2014 15.83 24.8 8.6 67.38 0.8 701.18 2.83
2/12/2014 14.72 21.9 11.6 78.46 3 701.09 2.65
2/13/2014 13.62 23.5 7.9 76.29 5.9 701.38 2.84
2/14/2014 13.69 18.7 11.1 76.63 0 701.72 2.55
2/15/2014 12.68 16.6 10.6 80.29 1.5 702.5 2.42
2/16/2014 15.5 24.7 7.1 68.92 0.1 701.27 2.32
2/17/2014 15.63 25.6 10.4 71.46 3.8 700.86 2.61
2/18/2014 15.39 23.9 10.4 72.17 0.1 626.78 2.14
2/19/2014 13.13 17.2 10 83.48 626.94
2/20/2014 13.78 20.9 8.6 76.13 0.8 700.36 2.25
2/21/2014 13.45 17.5 11.5 81.46 1 701.19 1.55
2/22/2014 13.33 24.3 8.1 82.13 5.5 701.91 1.66
2/23/2014 13.91 20 11 82.88 7.8 701.35 1.98
2/24/2014 13.69 19.8 10.4 81.17 10.1 701.83 1.81
2/25/2014 13.12 23 7.1 74.32 9.2 702.35 2.67
2/26/2014 13.1 17 11 85.33 4.1 702.38 1.93
2/27/2014 13.67 20.6 9.3 78.17 0 702.39 2.25
2/28/2014 15 24.1 10.7 73.46 5.1 702.06 2.38
3/1/2014 13.04 21.9 9 81.65 2.3 702.77 2.58
3/2/2014 15.18 24.7 8.6 70.43 0.4 700.82 2.39
3/3/2014 15.14 23.5 7.5 67.96 3.7 700.2 2.25
3/4/2014 14.89 25.1 10.4 71.33 3.7 701.15 2.61
3/5/2014 12.19 15.8 10.7 88 3.5 631.39 1.86
3/6/2014 13.78 18.7 10.4 77.5 0.4 702.74 2.34
3/7/2014 13.57 23.2 8.5 76.33 4.3 702.58 2.28
3/8/2014 12.89 19.1 9.6 85.61 7 702.71 1.97
3/9/2014 12.85 23.8 9.1 84.33 2.6 702.82 1.63
3/10/2014 15.06 23.4 9.4 71.77 0 701.76 3.29
3/11/2014 14.94 24.8 7.8 78.17 1 701.2 2.11
3/12/2014 15.23 21.7 11.9 76.67 0.4 701.45 1.79
3/13/2014 13.7 24.6 10.8 82.13 3.3 702.25 2.57
3/14/2014 12.86 20.1 9 82.63 1.5 631.22 1.64
3/15/2014 14.01 19.3 11.1 77.58 0.1 700.79 1.78
3/16/2014 13.13 20.3 10.7 85.42 8.1 700.49 2.09
3/17/2014 13.43 19.7 11 84.82 0.4 700.45 1.4
3/18/2014 13.23 21.1 10.9 85.04 5.3 701.4 2.44
3/19/2014 13.42 19.7 10.2 80.79 0.6 702.13 2.22
3/20/2014 14 22 11.3 79.46 0.1 701.31 2.23
3/21/2014 14.6 20.6 9.7 78.29 1.9 701.93 1.97
3/22/2014 11.78 15 9 86.88 9.5 704.54 2.21
3/23/2014 13.77 22.2 9.6 82.33 3.7 703.65 2.28
3/24/2014 14.95 23.7 10.1 79.38 1.1 702.66 1.73
3/25/2014 14.43 21.5 11.3 76.71 2.4 702.68 2.44
3/26/2014 13.92 19.7 11 83.13 0.8 702.91 1.7
3/27/2014 11.67 16.1 9.2 85.63 10.7 703.69 1.97
3/28/2014 13.08 20.5 8.7 77.04 0.1 702.07 2.01
3/29/2014 16.25 25.5 5.3 63.5 0 700.18 2.47
3/30/2014 17.39 26.8 9.1 54.67 0 700.05 3.5
3/31/2014 16.62 28.4 6.9 51.58 0 701.32 2.97
4/1/2014 16.37 24.8 13.5 71.5 0.1 702.76 2.07
4/2/2014 14.28 19.7 11.5 77.42 1 703.4 2.27
4/3/2014 12.67 17.4 10.6 83.83 3.1 703.36 1.62
4/4/2014 12.46 17 10 83.33 2.9 703.15 1.72
4/5/2014 12.6 18.7 10.6 83.67 1.4 703.67 1.4
4/6/2014 13.66 18.7 9.5 75.75 0.5 703.6 2.14
4/7/2014 13.05 18.7 9.9 80.71 3.2 703.67 1.75
4/8/2014 13.74 22.7 9.6 79.08 0.4 703.31 2.07
4/9/2014 15.29 22.6 10.7 72.83 0.1 702.75 1.85
4/10/2014 15.08 21.4 11.4 76.96 0.5 702.96 2.4
4/11/2014 16.36 26 7.4 70.74 0 702.3 2.53
4/12/2014 17.05 23.4 13.9 75.25 0.1 701.58 2.07
4/13/2014 15.78 22.3 12 73.75 0.9 702.27 2.53
4/14/2014 13.13 18.1 10.7 80.83 0.4 702.65 1.89
4/15/2014 12.76 20.4 9.4 83.79 1 702.37 1.75
4/16/2014 15.01 24.4 7.8 74.67 0.2 702.05 1.75
4/17/2014 14.17 30.3 6.4 75.29 0.1 702.3 2.08
4/18/2014 15.53 28.7 7.6 68.58 0.4 702.16 2.51
4/19/2014 15.43 25.2 10.6 73.33 0.1 703.02 1.6
4/20/2014 16.85 32.6 8.9 69.79 0 703.11 2.29
4/21/2014 17.27 25.3 12.7 69.58 0.3 702.26 2.1
4/22/2014 16.36 26.6 9.3 71.21 4.6 702.05 2.23
4/23/2014 15.67 22.3 10.6 72.71 3.7 702.51 2.3
4/24/2014 16.23 24.4 8.9 67.33 0 703.03 2.66
4/25/2014 17.04 25.6 12.8 71.79 0.5 631.97 2.61
4/26/2014 16.89 26.7 10.1 71.71 0 702.12 2.42
4/27/2014 15.33 25.4 9.6 73.58 0 692.83 2.31
4/28/2014 14.98 30.8 6.1 71.46 0.1 702.14 2.33
4/29/2014 14.21 24.2 12 84.33 2.3 702.53 1.75
4/30/2014 13.55 26.3 9.5 78.79 14.8 702.97 3.1
5/1/2014 15.44 27.7 6.4 69.75 0 701.38 2.28
5/2/2014 17.47 26.2 9.6 58.08 0 701.18 2.56
5/3/2014 15.13 20.8 12.9 74.88 0.2 703.66 1.99
5/4/2014 13.11 18.5 10.7 84.29 1.7 704.5 2.12
5/5/2014 15.78 24.9 10.6 71.71 0 703.22 2.32
5/6/2014 16.55 22.1 13 63.46 0 631.61 2.48
5/7/2014 16.79 24.6 11 68.25 3.2 703 2.81
5/8/2014 13.15 19.6 9.1 83.29 6.9 704.46 2.08
5/9/2014 15.27 21.9 11.2 74.63 0 703.39 1.69
5/10/2014 16.61 24.1 11 71.17 0.7 701.98 2.58
5/11/2014 15.68 24 9.5 77.38 2.4 701.78 2.05
5/12/2014 16.95 25.5 11.3 65.83 0 701.22 2.15
5/13/2014 17.8 25.8 12.7 61 0 701.28 2.43
5/14/2014 17.4 25.1 12.3 60.54 0.1 701.98 2.55
5/15/2014 17.67 25.9 12.3 63.46 0.6 702.32 2.59
5/16/2014 13.39 19.5 9.3 79.5 0.7 703.09 2.49
5/17/2014 13.09 25.2 6 74.75 1 702.25 2.76
5/18/2014 14.18 21.8 10 77.38 0.1 702.7 1.83
5/19/2014 14.74 24.2 10.7 73.33 0.1 703.05 1.65
5/20/2014 14.01 20.1 9.3 71.21 4.6 702.97 2.34
5/21/2014 13.08 22.5 9 78.92 0.1 702.78 1.65
5/22/2014 16.14 26.5 7.1 65.25 0 701.28 2.43
5/23/2014 17.14 25.3 8.8 52.71 0 702.24 2.77
5/24/2014 15.25 24.4 7.6 58.21 0 702.78 2.64
5/25/2014 17.45 26.2 7.6 60.46 0 702.12 2.59
5/26/2014 17 26 9.9 62.88 0 702.92 2.05
5/27/2014 17.51 27.2 11.8 60.25 0 703.11 2.29
5/28/2014 16.03 26.7 6.7 56.17 0 702.9 2.55
5/29/2014 15.66 26.1 6.7 54.38 0 702.07 2.42
5/30/2014 15.53 26.1 7 53.58 0 701.95 2.33
5/31/2014 15.62 28.7 7.8 50.88 0 701.76 3.14
6/1/2014 13.97 24 6.5 56.08 0 702.13 2.85
6/2/2014 15.35 27.5 6.5 54.96 0 701.44 3.03
6/3/2014 15.05 25.8 7.3 50.92 0 701.42 2.82
6/4/2014 15.39 25.8 5.8 49.42 0 701.15 2.91
6/5/2014 15.85 25.8 6 47.29 0 700.96 3.22
6/6/2014 15.38 26.7 7.8 45.79 0 701.42 2.91
6/7/2014 16.05 26.4 6 47.5 0 701.65 2.65
6/8/2014 16.12 26.6 6.8 48.67 0 701.53 2.45
6/9/2014 15.17 25.8 7.8 50.25 0 702.17 3.1
6/10/2014 14.03 22.4 7.5 54.17 0 703.37 3.31
6/11/2014 15.25 25.3 8.1 60.33 0.1 703.25 1.8
6/12/2014 15.86 25 7.4 49.58 0 702.59 2.63
6/13/2014 15.91 27 8 49.08 0 631.77 2.66
6/14/2014 14.95 22.6 10.6 54.33 0 703.17 2.2
6/15/2014 13.63 20.5 10.1 66.88 0.1 703.8 2.27
6/16/2014 14.1 23 7.2 64.75 0.3 703.37 2.53
6/17/2014 14.56 24.8 9.1 61.79 0 703.65 2.49
6/18/2014 13.22 24.1 3.9 46.71 0 704.29 2.52
6/19/2014 13.11 25.7 5.1 42.96 0 705 2.85
6/20/2014 13.4 24.9 3.7 44.58 0 633.04 2.84
6/21/2014 15.23 27 6.9 43.08 0 702.84 3.24
6/22/2014 14.81 27.7 6.2 47.75 0 703.17 3.09
6/23/2014 14.18 25.1 7 42.88 0 704 3.33
6/24/2014 15.23 23.6 9.4 44.33 0 704.05 2.74
6/25/2014 14.45 24.9 7.7 49.67 0 703.3 3.8
6/26/2014 16.41 26.9 8.1 49.33 0 702.2 3.4
6/27/2014 13.97 26.2 6.9 59.29 0.3 703.06 3.23
6/28/2014 13.92 25.1 5.6 55.54 0 703.82 2.63
6/29/2014 13.36 19.9 7.6 58 0 703.98 1.91
6/30/2014 15.61 26.5 6.1 48.21 0 702.65 2.65
7/1/2014 15.55 25.1 6.5 49.71 0 701.96 2.58
7/2/2014 15.9 25.1 7.8 48.33 0 702.28 2.82
7/3/2014 15.4 25 9.7 55.63 0.1 702.84 2.34
7/4/2014 14.92 24.3 7.5 48.83 0 703.66 2.22
7/5/2014 15.25 25.4 9 51.21 0.1 703.23 2.67
7/6/2014 13.8 23.7 7.7 56.17 0 703.28 2.81
7/7/2014 15.66 26.4 6.2 49.25 0 703.75 2.22
7/8/2014 15.89 22.9 8.2 48.96 0 704 2.99
7/9/2014 15.06 22 10.4 49.42 0 703.57 1.93
7/10/2014 15.01 28.4 5.1 37.79 0 703.21 3.1
7/11/2014 14.71 24.6 4.5 35.17 0 702.55 2.73
7/12/2014 14.56 25.7 5.5 38.92 0 702.89 3.02
7/13/2014 13.13 24.3 5.4 37.42 0 703.63 3.48
7/14/2014 13.03 23.1 4.3 39.46 0 704.63 3.26
7/15/2014 14.04 24.3 6 43.33 0 704.59 3.43
7/16/2014 14.15 25.2 7.3 41.21 0 633.98 3.08
7/17/2014 14.17 23.7 5.7 36.25 0 704.8 3.54
7/18/2014 12.74 21.4 6.4 50.21 0 704.67 2.27
7/19/2014 12.41 20.7 8 60.75 0.1 704.22 2.85
7/20/2014 12.45 17.6 8.9 68.13 0.1 633.04 2.9
7/21/2014 15.05 24.1 7.1 52.88 0.1 702.92 2.35
7/22/2014 14.88 24.3 6.3 50.46 0 702.26 2.59
7/23/2014 15.1 24.2 8.1 43.63 0 701.99 3.58
7/24/2014 14.49 22.7 7.6 45.04 0 702.11 2.95
7/25/2014 14.08 21 10.4 51.92 0.1 702.15 3.54
7/26/2014 14.88 23.6 6.3 51.46 0.2 702.4 2.77
7/27/2014 15.3 21.9 10.6 54.25 0 631.97 3.74
7/28/2014 12.39 18.2 9.6 67.46 0.7 704.28 2.14
7/29/2014 13.77 22 7.4 50.63 0 704.49 2.89
7/30/2014 13.85 21.6 6.4 47.04 0 704.36 2.82
7/31/2014 14.28 23.6 5.8 43.75 0 703.15 2.88
8/1/2014 13.75 23.3 5.5 43.33 0 703.12 3.03
8/2/2014 14.71 23.7 6.3 42.42 0 703.18 3.04
8/3/2014 15.88 26.2 9.4 34.5 0 702.91 2.42
8/4/2014 15.27 25.7 6.7 32.92 0 702.42 3.05
8/5/2014 14.09 23.6 7.5 40.58 0 703.96 2.43
8/6/2014 16.37 25 9 46.17 0 702.88 2.9
8/7/2014 14.77 24.2 9 51.04 0 702.79 3.15
8/8/2014 13.8 22.9 9.9 60.71 0 703.3 2.4
8/9/2014 13.19 18.4 9.5 62.08 0.2 703.33 2.36
8/10/2014 15.63 23 10.1 47.88 0 702.18 2.61
8/11/2014 14.79 22.5 7.6 49.79 0 702.79 2.45
8/12/2014 15.63 24.7 6.4 42.42 0 561.48 3.51
8/13/2014 12.29 18.4 7.1 55.33 0 704.33 2.41
8/14/2014 15.01 25.5 5.9 49.42 0 703.36 2.87
8/15/2014 14.45 19.9 8.9 47.79 0 703.82 2.55
8/16/2014 14.23 25.7 5.3 39.96 0 704.71 3.46
8/17/2014 14.55 25.2 5.7 39.29 0 704.01 3.24
8/18/2014 14.98 25.3 6.5 40 0 703.2 3.35
8/19/2014 15.64 25.6 9 41.96 0 702.44 2.87
8/20/2014 13.56 24.6 3.9 40.08 0 703.43 3.13
8/21/2014 14.58 25.8 6.1 29.04 0 702.74 3.45
8/22/2014 15.21 25.9 5.8 21.83 0 702.58 3.25
8/23/2014 15.83 25.8 6.6 25.58 0 701.38 3.07
8/24/2014 15.3 26.2 6.6 29.38 0 701.24 3.17
8/25/2014 16.57 26.4 8.4 39 0 701.31 3.08
8/26/2014 16.63 22.1 12.5 41.67 0 701.68 2.95
8/27/2014 15.05 22.2 9.6 48.38 0 701.81 3.13
8/28/2014 15.26 21.2 11.3 52 0.2 701.69 3.61
8/29/2014 14.19 22 10.8 55.83 0 703.14 2.84
8/30/2014 15.28 22.7 10.8 54.21 0.1 703.73 3.22
8/31/2014 16.19 24.7 10.3 45.38 0 703.73 3.05
9/1/2014 15.05 26 6 40.63 0 632.44 3.25
9/2/2014 16.1 26.3 5.9 37 0.1 366.7 2.68
9/3/2014 18.26 27.1 10.3 41.88 0 701.62 3.27
9/4/2014 16.58 24.3 11.1 45.29 0 702.09 2.78
9/5/2014 12 15.8 9.3 67.88 2.1 703.5 2.47
9/6/2014 15.94 26.3 7.9 53.96 0.1 702.49 2.95
9/7/2014 15.31 26.2 7.3 43.46 0 703.26 3.13
9/8/2014 15.28 26.1 5.9 36.83 0 703.57 3.4
9/9/2014 15.67 25.8 6.4 43.67 0 702.85 2.96
9/10/2014 16.78 25.7 8.4 42.75 0 701.11 3.34
9/11/2014 17.64 24.4 10.1 43.42 0 700.36 2.94
9/12/2014 15.8 24 11.3 56.08 0.1 700.68 2.18
9/13/2014 15.29 24.7 10.5 54.08 0 701.61 3.6
9/14/2014 13.14 17.8 10.1 62.04 0.2 702.9 2.73
9/15/2014 13.14 23.4 7.2 65.25 8.3 632.96 2.51
9/16/2014 13.9 24.1 7.7 68.46 3.4 703.94 2.54
9/17/2014 13.11 23 8.9 78.71 4.4 703.65 2.28
9/18/2014 14.79 24 9.8 67.38 0.3 702.49 2.87
9/19/2014 14.58 26.5 9.1 68.13 0.1 702.58 2.07
9/20/2014 14.58 25.5 5.7 63.21 0.3 702.73 3.3
9/21/2014 15.98 22.8 12.6 62.54 0 702.63 2.87
9/22/2014 14.36 21 11.7 69.38 0.3 631.69 2.34
9/23/2014 15.7 25 9.6 62.75 0.6 701.79 2.39
9/24/2014 16.9 23.9 11.3 56.5 0 364.6 2.65
9/25/2014 15.89 22.1 11 62.5 0.2 702.09 2.41
9/26/2014 14.71 24.7 9.7 70.17 1 702.15 2.82
9/27/2014 16.83 24.7 7.6 52.88 0 630.95 3.18
9/28/2014 14.61 18.1 12.1 64.08 0.2 703.04 2.23
9/29/2014 15.33 22.5 10.5 61.63 0.3 702.65 2.75
9/30/2014 16.26 25.8 8.6 58.21 0 702.55 2.78
10/1/2014 16.38 25.4 8.6 49.38 0 703.15 3.35
10/2/2014 15.43 24.3 9 48.54 0 703.55 2.53
10/3/2014 13.49 22.1 7.9 60.21 0.5 703.87 2.36
10/4/2014 15.14 26.4 7 61.79 0.2 701.88 2.31
10/5/2014 15.79 24.2 9.8 59.83 0.1 630.89 2.38
10/6/2014 13.44 17.5 10.9 68.43 0.2 702.73 2.45
10/7/2014 16.06 24 10.6 61.61 0.2 702.19 2.83
10/8/2014 14.46 22.9 11.1 76.54 630.78 1.89
10/9/2014 12.58 20.2 8.3 78.96 7.1 701.96 2.68
10/10/2014 15.17 25.1 8.2 67.29 0.4 701.38 1.93
10/11/2014 12.18 16.4 9 78.21 0.6 703.71 2.15
10/12/2014 12.18 18.2 9.8 75.5 0.9 633.18 2.18
10/13/2014 11.65 16.7 8.9 77.96 0.4 704.18 2
10/14/2014 12.77 21 4.7 63.08 0 704.73 2.49
10/15/2014 7.9 -359.9
10/16/2014 8.7 18.04 634.18
10/17/2014 14.84 22.7 9.3 58.68 0 703.87 2.65
10/18/2014 15.39 26.4 5.7 54.46 0 702.24 2.3
10/19/2014 15.02 22.1 9.7 58.74 3.9 701.76 2.13
10/20/2014 11.36 17.9 8.2 80.13 11.6 703.18 2.53
10/21/2014 14.11 24 9.1 73.79 5.3 631.43 2.05
10/22/2014 15.49 25.3 10.5 71.67 631.74
10/23/2014 15.29 21.3 12.4 67.5 0.4 547.59 2.3
10/24/2014 15.63 25.4 9.4 71.32 0.1 333.67 1.78
10/25/2014 11.52 14.7 9.7 83.05 3 702.98 1.79
10/26/2014 14.48 25.1 8.9 70.13 0.2 701.69 2.62
10/27/2014 16.16 25.5 7.7 64.92 3 701.18 2.5
10/28/2014 15.62 23.5 10.8 69.18 0.3 701.65 2.28
10/29/2014 15.69 25.7 9.2 62.58 630.78
10/30/2014 14.62 26.8 6.3 67.83 1 700.67 2.9
10/31/2014 13.91 23.2 6.5 68.58 0 701.21 2.28
11/1/2014 16.58 26 9.1 59.38 0 701.57 2.43
11/2/2014 16.9 24.6 12.5 64.14 0 702.07 3.03
11/3/2014 14.47 22.8 9.4 71.09 0.3 701.61 1.89
11/4/2014 14.1 25.6 6.2 68.43 2.5 345.27 2.21
11/5/2014 13.87 22.1 7.7 70.96 0 631.42 1.98
11/6/2014 12.12 15.7 10.3 83.71 2 703.68 2.13
11/7/2014 11.99 17.2 9.6 88.35 4.6 703.24 1.5
11/8/2014 15.1 23.5 9.1 68.67 0.2 702.26 2.68
11/9/2014 17.3 25.9 12 61.38 0 701.8 3.04
11/10/2014 16.88 26 11.4 57.92 0.8 701.74 2.28
11/11/2014 17.45 26.9 11 63.29 0.4 700.82 1.88
11/12/2014 15.95 24.2 12.5 72.88 3.9 700.39 2.51
11/13/2014 14.13 23.2 8.9 73.21 0 700.49 1.7
11/14/2014 12.7 22 7.7 78.55 1 700.42 1.56
11/15/2014 11.8 15.8 10.1 88.08 4.3 702.1 0.96
11/16/2014 12.36 21.7 9.1 84.08 8.3 702.66 1.82
11/17/2014 12.55 19.2 10 84.83 4.9 702.67 1.88
11/18/2014 15.24 25 9.6 71.96 0.1 701.29 2.52
11/19/2014 17.34 27.7 9.2 62.65 0.1 700.27 2.98
11/20/2014 17.68 26.5 7.6 39.79 0.1 358.17 2.93
11/21/2014 17.65 26.4 7.4 27.25 0 700.19 3.19
11/22/2014 18.2 26.9 7.4 40.42 0 700.39 2.83
11/23/2014 18.33 26.1 12.2 43.42 0 699.93 2.64
11/24/2014 18.06 26.8 12.9 52.14 0.1 700.06 2.57
11/25/2014 17.53 26.4 8.7 47.75 0 700.88 2.84
11/26/2014 17.58 28 9.1 35.48 0 700.17 3.44
11/27/2014 16.52 26 10 47.61 0 701 3.41
11/28/2014 16.82 26.7 7.4 56.46 0 700.64 2.4
11/29/2014 16.63 26.5 9.1 62 0.4 701 2.43
11/30/2014 16.4 24 13 65.08 0.1 701.3 2.73
12/1/2014 15.33 21.4 11.9 70.08 1.5 701.3 2.27
12/2/2014 14.39 22.3 11.2 72.21 0.1 700.78 2.69
12/3/2014 13.31 20 9.9 76.21 1.2 700.53 1.75
12/4/2014 10.8 12.2 9.3 89.08 5.1 702.37 1.48
12/5/2014 13.75 21.9 9.7 74.61 0.9 702.48 2.6
12/6/2014 15.21 22.5 10.1 68 1.1 701.69 1.7
12/7/2014 14.61 21.9 9.1 67.17 0.1 701.24 2.74
12/8/2014 15.53 24.1 7.2 65.04 3.3 700.4 2.45
12/9/2014 14.81 24.8 10 75.75 2.6 700.78 2.48
12/10/2014 12.73 18.6 9.7 83.83 2.2 701.17 2.27
12/11/2014 15.54 25.8 7.3 68.58 0.2 700.98 2.73
12/12/2014 15.86 25.4 11.8 69.33 5.9 701.98 2.01
12/13/2014 14.35 24.4 10.5 74 2 701.48 2.1
12/14/2014 13.77 23.3 8.3 76.21 0.5 700.8 2.14
12/15/2014 14.29 22 10 77.25 3.7 630.47 2.34
12/16/2014 14.24 19 10 75.88 0.2 702.5 1.81
12/17/2014 14.03 21.1 11.5 75.75 0.3 702.33 2.31
12/18/2014 13.11 20.1 9.5 80.63 0.3 701.43 2.36
12/19/2014 16.61 25.7 7.6 51.78 0 700.1 3.23
12/20/2014 18.1 26.9 9.5 44.79 0 699.76 2.98
12/21/2014 18.8 25.7 12.1 41.58 0 699.99 2.74
12/22/2014 16.01 23.9 12.3 62.19 13 619.56 3.16
12/23/2014 15.02 22 10.9 64.46 1.7 700.95 3.13
12/24/2014 15.07 20.6 11.4 66.25 0 701.32 2.32
12/25/2014 13.41 18.5 9.8 75.96 0.9 701.75 1.46
12/26/2014 13.16 20.4 10.5 79.63 7 702.42 2.52
12/27/2014 13.26 20.6 9.4 78.63 2.5 702.87 2.15
12/28/2014 12.98 18.8 10.2 83.25 0.4 702.67 1.79
12/29/2014 12.54 19.4 10.1 84.88 7.4 702.67 1.73
12/30/2014 15.32 22.4 9.7 72.04 0.7 702.03 2.68
12/31/2014 14.33 21.6 10 78.17 8.2 701.92 3.01
1/1/2015 14.23 22.1 10.3 75.08 0.4 701.9 3.16
1/2/2015 12.78 21.5 8.2 76.92 2.3 701.81 1.84
1/3/2015 13.32 20.5 9.1 75.08 0.8 702.14 1.95
1/4/2015 13.75 19.9 10.1 75.63 1.8 702.59 1.6
1/5/2015 14.58 21.3 9.8 78.04 1.6 702.27 2.63
1/6/2015 15.89 23.7 11.2 75 1.8 701.92 2.27
1/7/2015 15.98 25.6 11.7 74.75 1.2 701.39 2.47
1/8/2015 15.68 27 7.2 71.08 0.1 701.43 2.17
1/9/2015 15.37 22.6 11.7 75.13 1 702.37 2.13
1/10/2015 16.1 24.3 10.9 70.5 0.4 702.64 2.82
1/11/2015 16.61 26.3 9.4 74.79 0.1 702.25 1.28
1/12/2015 16.59 27.1 9.3 67.58 0.2 702.33 3.03
1/13/2015 16.01 27.7 5.7 68.67 0 702.15 2.7
1/14/2015 18 28.9 7.8 59.96 0 701.56 3.3
1/15/2015 19.78 30.7 9.5 50.88 0 702.09 3.18
1/16/2015 19.13 29.4 10.8 49.79 0 702.15 2.88
1/17/2015 16.98 34.3 11.7 64.13 6 701.67 2.4
1/18/2015 14.03 21.9 10.2 77.42 6.9 702.03 1.75
1/19/2015 13.42 24.2 8.5 79.5 11.8 702.6 2.62
1/20/2015 12.88 23.3 8.7 82.17 8.3 701.7 2.66
1/21/2015 13.63 24.7 8.4 79.92 11 702.28 2.45
1/22/2015 11.81 16.8 9.3 88.25 8 703.12 1.59
1/23/2015 12.42 21.6 9.8 87.5 7.9 702.67 1.72
1/24/2015 11.79 16 9.4 84.13 8.8 702.6 2.43
1/25/2015 13.24 18.6 9 76.96 1.4 701.17 1.67
1/26/2015 13.93 22.5 9.9 76.5 3 700.83 2
1/27/2015 15 23.8 10.6 79.96 4 701.4 2.28
1/28/2015 16.95 26 10.1 75.54 0.3 700.98 2.17
1/29/2015 14.33 18.1 11.7 86.33 7.2 701.4 1.46
1/30/2015 13.62 24.6 8.8 83.79 5.8 701.98 1.97
1/31/2015 13.59 21.3 9.5 82.83 8.8 702.86 2.2
2/1/2015 12.82 18.7 9 85.74 11.5 702.97 1.88
2/2/2015 13.2 17.3 10.2 80.27 1.2 703.19 1.93
2/3/2015 14.78 24.4 9.7 77.58 3 702.99 2.15
2/4/2015 16.24 26.3 8.3 71.36 6.1 701.5 3.26
2/5/2015 17.35 34.1 8.9 73.08 0.8 701.55 2.2
2/6/2015 16.19 25 6.5 67.13 0.9 701.43 2.7
2/7/2015 15.78 29.8 10.2 86.13 4.6 701.8 2.53
2/8/2015 15.91 23.8 10.5 82 0.2 701.34 1.76
2/9/2015 16.12 25.5 11.6 80.54 2.2 700.93 2.74
2/10/2015 17.22 28.7 8.5 70.79 0 700.75 2.19
2/11/2015 19.04 32.6 13.7 76 0.2 702.14 3.16
2/12/2015 20.03 29.8 13.1 71.79 0 702.46 2.63
2/13/2015 18.1 26.3 13.9 83.58 6.5 703.26 2.17
2/14/2015 15.31 23 12.5 85.09 2.9 703.08 2.15
2/15/2015 15.12 21.5 12.1 82.33 2 702.57 1.49
2/16/2015 18.25 9.9 77.83 0.5 702.17 1.94
2/17/2015 20.3 29 10 61.25 0 701.67 2.72
2/18/2015 20.71 35.3 10.6 52.17 0 700.54 2.93
2/19/2015 22.34 41.3 13.6 41.54 0 699.8 2.77
2/20/2015 16.63 26.3 10.8 53.29 0 699.93 3.35
2/21/2015 18.33 30.5 7.9 53.26 0.1 700.4 4.17
2/22/2015 17.56 27.1 12.3 73.22 0.1 701.17 2.92
2/23/2015 15.53 26.3 10.8 81.33 10.1 701.84 2.01
2/24/2015 12.53 17.3 10.3 92.17 4.5 701.88 1.4
2/25/2015 12.35 18.8 10.1 88.21 631.35
2/26/2015 14.05 27.4 9.4 82.83 2 702.27 2.34
2/27/2015 13.9 23.4 9.4 82 0.7 702.35 1.74
2/28/2015 16.05 23.4 9.9 77.04 0.7 702.11 2.16
3/1/2015 17.17 42.1 11.5 82.43 1.8 702.32 2
3/2/2015 16.65 29.7 12.3 81.04 1.6 701.53 2.18
3/3/2015 14.93 23.9 10.2 87.5 4.1 701.13 1.23
3/4/2015 15.43 28.4 9.2 77.92 0.7 701 2.42
3/5/2015 17.9 11.7 81.92 5.3 701.36 2.18
3/6/2015 15.52 24.5 12 87.92 1.7 701.73 1.47
3/7/2015 16.81 27.6 12.2 88.71 2.2 701.59 2
3/8/2015 17.53 30.8 12 83.17 0.8 701.05 1.6
3/9/2015 17.48 29.2 11.2 82.63 0.8 701.61 2.03
3/10/2015 15.87 24.7 12.6 85.5 1.5 702.41 1.6
3/11/2015 15.2 24.5 11.9 82.88 3.6 702.83 1.84
3/12/2015 15.94 38.7 8.7 85.91 3.2 702.3 1.59
3/13/2015 16 26.8 9.4 82.04 6.2 701.26 2.32
3/14/2015 17.63 7.4 80.92 2.4 701.22 1.94
3/15/2015 20.7 8 75.42 0 701.7 2.25
3/16/2015 19.54 41.5 13.4 79.04 4.5 702.32 2.09
3/17/2015 19.95 37.8 14.3 90.63 4.8 702.1 1.7
3/18/2015 16.98 26.2 13.1 82.96 10.6 701.75 1.75
3/19/2015 15 26.1 11.7 88.92 5.2 702.7 1.03
3/20/2015 18.23 32.2 11.2 83.33 5.8 702.32 1.73
3/21/2015 14.5 23.7 11.1 91.46 9.7 703.43 1.75
3/22/2015 16.92 44.3 10.7 87.17 3.9 703.29 1.54
3/23/2015 17.35 40 10.4 79.46 0.4 703.67 2.45
3/24/2015 17.18 30.9 11.6 79.29 0 703.39 1.75
3/25/2015 15.9 30.2 10 83.67 3.5 703.19 1.93
3/26/2015 17.18 27.1 7.4 68 0.2 702.24 2.78
3/27/2015 18.32 37.1 8 67.79 0.4 702.6 3.73
3/28/2015 19 27.3 15 74.13 0.2 703.75 3.02
3/29/2015 16.05 27.8 11.3 83.67 7.4 704.51 2.23
3/30/2015 16.69 34 6.1 79.5 2.5 703.08 1.74
3/31/2015 18.53 30.8 9.1 75.38 0 702.28 2.48
4/1/2015 16.95 20.4 12.3 90.54 1.7 703.57 1.74
4/2/2015 16.45 26.8 12 86.88 1.3 703.63 2.03
4/3/2015 17.02 27.2 9.2 81.79 0.7 702.38 2.06
4/4/2015 17.75 29.9 10.8 74.75 1.5 700.77 2.85
4/5/2015 16.63 26.7 11.6 87.88 3 701.3 2.23
4/6/2015 17.13 32.8 11.6 85.21 1.1 701.97 1.75
4/7/2015 15.55 26.8 9.8 86.5 2.6 702 1.42
4/8/2015 16.76 30.1 11.3 78.21 0.2 701.37 2.08
4/9/2015 17.75 30 11.1 79.17 0.1 701.94 1.79
4/10/2015 17.42 10.7 83.47 4.2 703.25 1.96
4/11/2015 14.87 28 9.3 85.71 3.5 703.75 1.24
4/12/2015 15.54 26.2 9.6 84.29 0.7 703.77 1.81
4/13/2015 18.14 10.4 78.92 0.2 704.01 2.1
4/14/2015 16.49 33.6 7.7 77.96 1.4 703.9 2.8
4/15/2015 18.91 9.6 78.92 0 702.92 2.75
4/16/2015 19.14 10.7 81.25 0 703.15 2.35
4/17/2015 19.82 11 71.25 0 702.39 3.05
4/18/2015 19.1 28.5 12.9 68.96 0.1 702.06 2.65
4/19/2015 18.87 8.5 74.67 0.4 701.77 2.63
4/20/2015 18.11 28.3 11.1 72.08 0 702.01 2.34
4/21/2015 17.31 42.5 8.4 82.04 7 702.61 2.24
4/22/2015 14.99 26.6 8.5 82.64 0.2 703.36 2.16
4/23/2015 20.7 9.2 75.64 0 703.15 1.9
4/24/2015 17.98 29.9 11.7 83.25 3.6 704.24 2.31
4/25/2015 16.63 33 10.2 85.33 1.1 704.28 2.13
4/26/2015 17.49 29.4 10.7 79.26 0.5 703.93 2.46
4/27/2015 16.9 28.4 9.3 77.5 1.7 702.85 1.82
4/28/2015 19.15 43.8 10.7 82.92 0.2 702.53 1.67
4/29/2015 20.57 43.6 9.7 83.83 0 702.45 1.44
4/30/2015 20.27 9 81.04 0 702.2 1.4
5/1/2015 19.65 10.5 77.67 0 702.33 1.45
5/2/2015 16.62 27.3 8.6 75.96 1.5 701.75 2.8
5/3/2015 18.33 28.9 5.7 70.88 0 701.54 3.45
5/4/2015 21.68 11.7 73.54 0.4 702.41 3.14
5/5/2015 16.92 30 10.3 81.5 1.3 703.36 2.02
5/6/2015 18.25 32.2 10.8 77.71 0.2 703.33 2.37
5/7/2015 19.41 35.1 9.6 76.46 0 702.86 1.84
5/8/2015 17.52 31.7 10.5 86.17 2.1 703.32 2.02
5/9/2015 20.11 41.6 10.5 80.21 1.4 703.09 2.05
5/10/2015 20.32 8.2 74.04 0 702.65 2.4
5/11/2015 19.36 39.2 9.2 75.25 0 702.86 1.77
5/12/2015 22.5 11.3 78.67 1.5 702.57 1.7
5/13/2015 21.95 13 79.5 3 702.43 2.96
5/14/2015 16.75 10.7 88.58 10.5 703.26 2.37
5/15/2015 15.59 33.9 9.5 85.67 2.4 703.09 2.12
5/16/2015 10.41 12.3 7.9 93.71 5.5 704.43 2.01
5/17/2015 13.61 35.7 8.1 87.46 11.2 705.38 2.17
5/18/2015 12.51 25.5 7.7 89.25 10.9 706.17 1.63
5/19/2015 16.5 37.5 8.7 78.67 0.2 704.99 2.75
5/20/2015 19.61 5.4 77.63 0.1 703.71 1.99
5/21/2015 19.71 38.9 11.8 73.63 3.5 704.25 2.64
5/22/2015 18.42 6.6 64.46 0 703.8 2.53
5/23/2015 20.94 38.5 10.8 66.29 0 703.37 2.57
5/24/2015 20.91 9.9 67 0 702.74 2.28
5/25/2015 22.91 10.6 70.79 0 702.75 2.4
5/26/2015 21.8 9.2 73.29 0 702.86 2.46
5/27/2015 23.08 11.8 69.75 0 702.45 2.8
5/28/2015 20.28 10.6 72.96 0.5 702.44 3.09
5/29/2015 20.9 9.5 71.92 0.2 702.2 3.1
5/30/2015 18.49 8.3 75.71 1.8 701.94 1.96
5/31/2015 16.22 29.2 8.7 82.21 4 703.04 2.2
6/1/2015 19.28 38.5 12.2 84.21 0.3 703.62 1.53
6/2/2015 18.9 35.3 9.5 73.25 0 703.56 1.65
6/3/2015 14.71 39.9 8.7 75.92 7.9 703.66 2.37
6/4/2015 18.27 37 7 73.21 0 704.26 2.53
6/5/2015 17.06 27.8 11.3 74.42 0 704.55 2.67
6/6/2015 17.63 34.8 7.9 59.83 0 703.18 2.57
6/7/2015 16.59 27 6.7 53.88 0 703.11 2.45
6/8/2015 16.06 32.8 4 55.29 0 703.18 2.39
6/9/2015 16.82 32.1 8 61.83 0 702.13 2.14
6/10/2015 20.59 10.4 65.17 0 702.17 2.38
6/11/2015 17.55 43.3 8.5 72.08 0.1 703.08 2.5
6/12/2015 14.95 27.5 7.1 69.96 1.2 703.7 3.15
6/13/2015 17.96 5.2 62.25 0.1 702.64 2.76
6/14/2015 19.21 8.1 57.63 0 701.75 2.6
6/15/2015 23.59 8.2 63.29 0 702.3 2.79
6/16/2015 19.87 31.3 12.1 68.71 0 703.1 2.31
6/17/2015 20.35 34.7 7.7 63.63 0 702.66 2.9
6/18/2015 17.73 38 6.4 71.92 0 703.15 1.39
6/19/2015 17.11 38.8 10.1 72.96 0.1 703.6 2.48
6/20/2015 17.08 35.3 6.1 58.17 0 703.65 2.28
6/21/2015 15.61 29 4.2 47.83 0 704.2 2.88
6/22/2015 15.48 33.9 4.9 47.42 0 704.25 2.92
6/23/2015 14.36 25.1 3.8 49.88 0 704.84 2.93
6/24/2015 15.05 34.4 4.1 52.75 0 705.35 2.95
6/25/2015 14.7 37.5 5.3 57.67 0 704.99 2.18
6/26/2015 16.53 29.8 8.8 56.04 0 704.76 3.06
6/27/2015 15.74 39.9 8.3 57.83 0.2 705.26 2.33
6/28/2015 14.67 27.4 5 49 0 704.72 2.83
6/29/2015 16.06 29 6.5 45.21 0 703.61 3.27
6/30/2015 16.47 33.9 5.2 47.17 0 703.02 2.67
7/1/2015 16.24 27.2 6.3 56.04 0 703.08 2.75
7/2/2015 17.65 38.9 7.7 58.96 0 702.53 2.2
7/3/2015 18.12 30.4 6.2 55.29 0 701.89 3.87
7/4/2015 18.99 9.1 65.42 0.9 702.56 3.29
7/5/2015 17.16 7 64.42 0 702.79 2.42
7/6/2015 17.49 36.8 5.9 38.25 0 702.48 3.15
7/7/2015 17.86 39.9 5.7 35.92 0 702.77 2.99
7/8/2015 16.34 33.1 5.2 42.88 0 702.53 2.78
7/9/2015 16.6 34.8 4.6 43.75 0 702.38 2.81
7/10/2015 17.53 37.6 7.9 44 0 702.91 3.24
7/11/2015 8.33 10.7 5.5 57.11 0 704.46 1.33
7/13/2015 17.52 29.8 7 47.86 0 702.32 3.33
7/14/2015 18.4 7.9 47.13 0 702.4 2.49
7/15/2015 19.55 37.5 8.9 49.54 0 702.54 3.17
7/16/2015 17.46 27.6 10.8 55.42 0.6 703.46 2.77
7/17/2015 17.42 42.8 7.4 62.25 0 703.95 1.95
7/18/2015 14.5 40 5.5 66.13 0 704.2 2.16
7/19/2015 16.27 28 3.6 49.5 0 703.61 2.8
7/20/2015 18.59 34.3 5.4 39.88 0 702.93 3.28
7/21/2015 17.11 36.6 7.4 44.38 0 702.94 2.82
7/22/2015 20.87 7.9 47.58 0 703.28 3.28
7/23/2015 19.16 33.2 11.9 53.67 1.5 703.35 1.75
7/24/2015 17.86 33.4 5.7 53.08 0.1 703.72 2.91
7/25/2015 17.05 31.5 5.3 50.29 0 703.38 3.34
7/26/2015 17.8 32.6 6.7 50.46 0 702.68 2.95
7/27/2015 18.05 5.6 54.17 0.7 702.37 3.34
7/28/2015 18.26 6.4 43.25 0.1 702.17 3.2
7/29/2015 16.93 6.1 43.88 0 703.5 3.24
7/30/2015 17.73 35 7.4 43.71 0 703.91 2.83
7/31/2015 18.04 6.3 53.25 0 703.31 3.44
8/1/2015 16.68 29.1 7.7 42.58 0 702.8 3.08
8/2/2015 15.93 28 4.7 37.04 0 702.34 2.83
8/3/2015 18.59 40.4 6.9 33.38 0 702.05 3.6
8/4/2015 19.42 38.6 8 49.13 0 703.5 2.93
8/5/2015 18.25 43.4 8.8 47.13 0 703.6 2.61
8/6/2015 17.29 31.4 7.3 45.46 0 702.78 3.07
8/7/2015 18.32 41.1 6.9 34.92 0 702 3.67
8/8/2015 19.29 7.6 40.42 0 702.03 2.6
8/9/2015 18.2 31.7 6.6 28.54 0 701.34 2.87
8/10/2015 23.03 9.8 46.21 0 700.99 3.77
8/11/2015 22.69 9.2 49.92 0 701.6 3.53
8/12/2015 16.92 9.9 73.71 1.8 702.73 3.08
8/13/2015 18.7 35.3 9.1 62.63 0 702.87 3.32
8/14/2015 19.58 43.7 8 51.38 0 703.21 2.98
8/15/2015 20.67 8.3 53.79 0 703.2 3.25
8/16/2015 -23.39 32.6 11.38 632.35
8/17/2015 20.6 8.5 50.13 0 703.06 3.06
8/18/2015 18.3 35.8 10.6 48.92 0 703.43 2.72
8/19/2015 18.09 33.5 7.5 43.88 0 703.47 2.53
8/20/2015 18.53 33.1 7 43.58 0 702.82 3.11
8/21/2015 20.1 8.3 44.17 0 702.82 3.28
8/22/2015 19.22 42.7 7.4 45.67 0 701.9 3.37
8/23/2015 17.68 29.9 7.7 48.75 0 702.2 3.38
8/24/2015 20.6 9.1 51.83 0 702.15 3.25
8/25/2015 19.74 33.9 10 45 0 701.93 3.18
8/26/2015 16.5 29.4 7.7 54.5 3.5 702.36 3.44
8/27/2015 15.5 31.2 7 68.54 0.1 703.3 1.67
8/28/2015 12.72 18.2 9.4 68.92 0 704.13 1.73
8/29/2015 17.2 30.3 7.8 47.5 0 703.56 2.83
8/30/2015 19.08 36.4 7.3 39.88 0 703.39 3.6
8/31/2015 18.81 32.8 8.6 47.08 0 703.54 3
9/1/2015 22.42 9.3 43.46 0 704.05 3.7
9/2/2015 16.91 31.5 9.8 56.17 1.5 704.76 3
9/3/2015 18.85 5.9 53.33 0 703.14 3.08
9/4/2015 16.37 27.6 10.4 53.67 0 703.4 2.38
9/5/2015 19.08 8.5 53.21 0 703.54 3.17
9/6/2015 19.45 43.6 9.4 55.38 4.7 702.77 3.16
9/7/2015 21.01 11.4 57.71 1 702.12 2.98
9/8/2015 19.9 9.4 56.67 2.8 701.46 3.17
9/9/2015 21.31 10 70.79 1.3 701.47 3.12
9/10/2015 22.51 7.6 58.29 0 701.55 2.68
9/11/2015 21.13 34.9 12.1 43.63 0 702.32 3.57
9/12/2015 23.07 11 46.63 0 702.5 3.1
9/13/2015 21.53 12.6 48.46 0 703.1 3.19
9/14/2015 21.85 43.4 9 51.83 0 703.12 3.41
9/15/2015 20.5 40.9 7.4 47.75 0 703.6 3.25
9/16/2015 21.68 7.9 42.52 0 702.82 3.38
9/17/2015 22.39 41.5 9.7 43.08 0 701.92 3.37
9/18/2015 20.56 13.2 48.65 0 701.9 3.12
9/19/2015 24.74 11.6 57.13 0 702.55 3.1
9/20/2015 13.36 18.6 11.2 79.17 4.6 703.86 1.83
9/21/2015 17.39 33.9 9.2 69.95 0.7 702.11 1.7
9/22/2015 21.87 38.8 9.8 53.61 0 701.18 2.83
9/23/2015 22.15 37.3 13.9 51.59 0.2 700.79 2.92
9/24/2015 19.5 31 14.3 62.42 0.1 701.88 2.06
9/25/2015 18.75 27.7 12.8 47.38 0 702.2 2.48
9/26/2015 22.68 36.7 11.9 49.29 0 702.28 2.91
9/27/2015 17.56 31.9 11.6 61.83 8.3 702.63 2.65
9/28/2015 17.37 25.5 11.7 66.96 0.3 701.69 2.95
9/29/2015 16.22 25.6 11.6 67.08 1.4 701.04 1.91
9/30/2015 13.45 16.9 8.7 74.21 0.2 701.36 2.21
10/1/2015 16.97 26.4 5.7 52.25 0 700.47 2.9
10/2/2015 21.43 38.7 10.7 45.75 0 700.5 3.54
10/3/2015 24.73 12.9 58.3 0.3 700.87 3.8
10/4/2015 16.95 29.9 10.9 72.46 2.3 703.57 2.38
10/5/2015 15.84 32.6 11.4 71.46 0.6 704.59 2.31
10/6/2015 17.08 43.7 7.8 70.75 1.4 703.67 2.3
10/7/2015 19.3 9 69.83 4.9 702.69 2.63
10/8/2015 20.44 9.9 65.71 0.1 701.9 2.93
10/9/2015 21.44 11.6 63.5 0.1 701.67 2.35
10/10/2015 20.36 36.1 11.2 63.13 0.9 702.1 2.38
10/11/2015 21.17 11.6 62.5 0.1 701.64 3.08
10/12/2015 23.06 11.7 61.17 0.1 701.68 2.19
10/13/2015 21.78 36.2 10.7 51 0 701.84 2.28
10/14/2015 21.84 8.9 47.46 0 701.44 2.91
10/15/2015 22.16 10.1 54 3.2 701.63 2.8
10/16/2015 17.88 34.1 12.2 65 4.8 702.42 1.57
10/17/2015 15.43 31.4 9.8 70.25 1.8 703.78 2.24
10/18/2015 14.54 24 10.7 67.42 0.2 705 2.3
10/19/2015 18.28 32.5 10.7 59.83 0 703.86 1.92
10/20/2015 18.74 41.6 12.3 62.5 0.1 703.3 2.48
10/21/2015 18.53 33.9 11.1 63.96 0.8 703.03 2.92
10/22/2015 25.14 12.2 62.08 0.1 702.03 2.42
10/23/2015 20.32 34.2 11.3 55.33 0 702.57 2.34
10/24/2015 17.53 28.6 12.1 54.83 0.2 703.24 2.16
10/25/2015 15.5 35.9 11.2 70.54 5.8 703.4 2.75
10/26/2015 19.47 10.7 67.79 3 703.03 2.5
10/27/2015 14.47 21.5 11.9 77.13 1.8 703.79 2.41
10/28/2015 18.5 36.2 11.2 68.79 1.4 703.36 2
10/29/2015 18.65 12 79.48 3.7 702.96 2.36
10/30/2015 17.23 37.4 10.2 79.29 1 702.43 2.32
10/31/2015 19.9 43.1 9.1 61.38 0 701.45 3.16
11/1/2015 24.87 11.9 42.67 0 700.45 3.91
11/2/2015 23.07 10.7 28.96 0 699.92 3.16
11/3/2015 20.58 8.8 24.21 0 700.49 2.9
11/4/2015 24.02 9.5 28.17 0 700.53 3.73
11/5/2015 24.03 12.1 45.87 0.6 701.13 3.34
11/6/2015 12.9 17.6 9.4 80.04 12.6 703.23 2.32
11/7/2015 14.05 25.6 8.7 83.63 4.3 702.72 1.9
11/8/2015 15.34 27.5 9.9 80.92 12.2 702.42 1.32
11/9/2015 14.8 22.6 10.9 83.74 2 703.21 2.11
11/10/2015 20.73 11.1 76.13 0.3 702.87 2.53
11/11/2015 20.15 12.1 71.04 560.47 207.75
11/12/2015 16.8 24.8 12.3 74.71 2.3 702.23 2.14
11/13/2015 19.13 37.7 12.1 75.38 0.1 701.8 1.55
11/14/2015 21.35 13.1 71.88 0.4 702.25 2.26
11/15/2015 22.54 12.2 71.13 6.2 702.27 3.09
11/16/2015 20.35 32 13.1 69.04 1.5 701.08 1.82
11/17/2015 17.57 27.5 10.9 73.79 3.9 700.94 2.09
11/18/2015 26.04 7.6 75.09 3.4 700.58 3.04
11/19/2015 20.99 40.8 8.9 62.96 0.5 700.04 2.2
11/20/2015 18.83 36.1 12 66.5 0.3 700.04 2.65
11/21/2015 19.99 11.2 66.79 0.7 700.57 2.22
11/22/2015 17.02 36 9.7 73.75 9.9 702.28 1.98
11/23/2015 16.06 24.1 9.8 73.52 0.1 701.91 1.65
11/24/2015 -20.62 21.21 629.98
11/25/2015 19.19 41 12 67.04 2.3 701.61 2.54
11/26/2015 16.93 32.1 8.3 71.38 0.1 702.25 2.1
11/27/2015 21.34 11.7 65.24 2.6 701.55 2.89
11/28/2015 20.3 33.6 10.1 72.04 0.5 700.76 1.68
11/29/2015 22.45 12.7 67.96 0.7 700.7 1.95
11/30/2015 22.31 13 68.79 9.1 700.86 2.78
12/1/2015 13.57 19.5 9.8 86.57 9.3 703.41 1.39
12/2/2015 14.12 24 10.5 81.92 0.6 703.89 1.58
12/3/2015 20.92 9.8 71.79 3.5 703.33 3.1
12/4/2015 19.09 9.1 70.46 3.5 704.01 2.54
12/5/2015 18.69 8.3 68.96 0.8 703.43 2.36
12/6/2015 20.89 9.1 67.96 0.7 701.99 2.79
12/7/2015 24.8 12 60.17 1.3 700.75 3.21
12/8/2015 26.17 12.8 63.67 0.1 701.07 3
12/9/2015 18.23 33.8 13.8 74.65 3.5 702.63 1.85
12/10/2015 18.74 33.1 10.9 77.86 1.2 703.62 1.73
12/11/2015 22.06 10 73.65 0.3 702.41 2.35
12/12/2015 17.75 27.2 12.3 73.88 0.5 702.63 2.15
12/13/2015 22.8 9.3 67.58 0.6 702.37 2.02
12/14/2015 16.43 27.8 8.7 77.63 0.8 702.42 1.43
12/15/2015 15.91 10.4 83.88 4.9 701.97 1.17
12/16/2015 17.29 29.8 9.4 76.17 0.1 702.15 2.05
12/17/2015 18.57 29.9 11.5 77.71 1.6 701.32 1.99
12/18/2015 19.05 34.2 12.7 79.46 1.8 701.23 2.22
12/19/2015 20.46 41.8 12.8 76.75 1 702.17 2.03
12/20/2015 18.02 43.3 11.7 79.58 1.3 702.58 2.08
12/21/2015 16.88 26.8 11.4 73.71 0.1 701.7 1.52
12/22/2015 19.51 32.9 11.1 63.25 0 700.83 3.13
12/23/2015 18.45 30 12.9 69.21 1.5 701.19 2.41
12/24/2015 15.75 24.3 9.7 82.13 12.3 702.93 2.69
12/25/2015 19.82 37.8 14.4 81.13 0.1 702.55 2.09
12/26/2015 17.88 27.6 12.9 80.58 1.3 701.64 1.95
12/27/2015 17.52 26.7 12.7 82.08 5.8 700.9 1.69
12/28/2015 16.6 12 86.21 4.6 701.9 1.8
12/29/2015 16.88 23.4 13.3 78.5 0.1 703.76 2.08
12/30/2015 17.64 27.2 10.3 72.42 0.8 703.84 2.1
12/31/2015 20.02 10.1 72.25 1.3 702.75 3.25
1/1/2016 18.58 12.3 81.04 3 702.52 2.38
1/2/2016 18.53 35.2 7.1 61.42 0 702.32 2.89
1/3/2016 22.8 15.4 55.25 0 701.09 2.98
1/4/2016 22.96 14 63.42 0 701.5 3.03
1/5/2016 22.25 12.7 62.29 0 702.41 2.54
1/6/2016 21.49 12.6 75.04 1 703.77 2.77
1/7/2016 21.17 12.6 66.58 1 702.3 2.71
1/8/2016 19.16 34.2 11.5 57.91 0 701.64 2.56
1/9/2016 19.68 44.9 9.5 54.17 0 701.62 2.85
1/10/2016 21.64 9.9 41.96 0 701.15 3.29
1/11/2016 22.6 12.5 46.63 0.1 701.26 3.58
1/12/2016 26.9 12.7 54.08 0 701.24 1.84
1/13/2016 21.9 43.9 12.3 37.5 0 701.69 3.01
1/14/2016 19.84 30.9 11.3 32.83 0 701.31 3.4
1/15/2016 23.85 12.3 43.29 0 700.95 3.87
1/16/2016 22.4 9.2 49.46 0 701.12 2.73
1/17/2016 18.5 35 12.4 63.58 0.4 702.13 2.83
1/18/2016 17.72 25.1 13.4 72.04 4.3 702.32 3.05
1/19/2016 18.6 38.7 11.8 74.42 0.7 702.33 2.37
1/20/2016 17.15 25.9 12.9 79.54 0.6 702.78 2.08
1/21/2016 15.88 22.9 12.1 77.25 4 703.02 1.91
1/22/2016 18.62 36.4 10.2 65.68 0.3 703.37 2.5
1/23/2016 21.36 41 9.6 57.67 0 703.07 2.62
1/24/2016 20.73 32.8 10.7 51.71 0 702.72 2.98
1/25/2016 18.13 10.1 63.46 0.7 702.45 2.52
1/26/2016 20.01 34.7 10.2 62.29 0.1 703.01 3.25
1/27/2016 20.18 34.4 11.9 60.75 0.5 701.65 2.7
1/28/2016 17.93 33 13.1 78.21 4.4 702.47 2.77
1/29/2016 16.62 33.4 12.2 81.54 3.2 702.54 2.1
1/30/2016 16.15 27.1 10.7 79.96 3.1 702.53 2.01
1/31/2016 17.47 32.7 10 74.17 0 702.05 1.89
2/1/2016 15.33 19.2 12 87.33 2.8 702.42 1.8
2/2/2016 17.71 38.1 12 78.29 0 701.7 2.21
2/3/2016 19.3 31.8 14.8 72.71 4.6 701.69 3.55
2/4/2016 16.37 32.8 12.7 86.33 4.8 702.18 2.21
2/5/2016 18.08 33 12.2 81.42 3.5 702.48 2.27
2/6/2016 18.51 26.3 13.3 74.42 0.1 702.98 2.12
2/7/2016 19.58 35.8 13.8 74.75 1.6 702.56 1.62
2/8/2016 17.67 26.5 14.4 81.21 0.9 702.78 1.92
2/9/2016 17.58 30.1 13.1 75.42 0.4 703.58 1.74
2/10/2016 16.31 21.3 13.4 79.63 1.2 704.43 1.46
2/11/2016 18.01 28 12.3 70.43 581.42
2/12/2016 17.78 35.2 10.6 71.63 0.3 703.16 2.68
2/13/2016 19.08 25.2 15.2 66.5 0 701.57 2.63
2/14/2016 17.01 20.3 15.4 81.92 0.3 701.23 1.56
2/15/2016 15.86 18.3 14 81.78 0.1 701.11 2.58
2/16/2016 19.82 23.2 17.9 74.8 0 701.66 2.92
2/17/2016 16.81 20.9 13.9 79.75 0.1 702.42 2.02
2/18/2016 18.05 31.4 13.4 74.96 0.3 702.71 2.02
2/19/2016 19.15 27.8 13.6 69.63 0 702.28 1.73
2/20/2016 20.62 38.2 13.5 62.83 0 701.05 3.28
2/21/2016 21.66 14.4 67.75 0.4 700.38 2.66
2/22/2016 21.96 13.8 76.29 15.7 700.62 2.53
2/23/2016 17.5 25.9 14.2 88.33 3.7 702.48 1.63
2/24/2016 17.62 25.7 13.9 82.63 2.9 702.81 2.25
2/25/2016 17.88 42.8 12.6 84.83 1.2 702.88 2.38
2/26/2016 18.62 12.5 84.17 2.8 702.1 2.25
2/27/2016 20.34 35.2 13.9 78.54 0.6 701.45 2.05
2/28/2016 19.84 13.9 76.04 30.4 703.13 2.78
2/29/2016 21.22 12.3 75.63 2.6 703.53 2.84
3/1/2016 20.54 28.6 14.1 74.14 0 703.08 2.21
3/2/2016 18.09 33 14.2 86.73 4.8 703.22 1.76
3/3/2016 15.65 29.3 12.7 629.27
3/4/2016 19.17 9.9 77.71 3.6 702.59 2.03
3/5/2016 18.51 28.4 14 80.91 4.2 703.52 2.21
3/6/2016 19.03 42.9 13 92.13 7.8 703.73 1.8
3/7/2016 13.81 21.6 10.1 90.42 2.9 703.49 1.18
3/8/2016 20.64 9.1 89.67 0.7 703.25 1.67
3/9/2016 19.63 11.5 81.46 1 702.9 1.69
3/10/2016 24.79 14.8 71.17 0.1 703.03 2.64
3/11/2016 20.65 44.1 13.7 72.71 0.1 703.2 1.98
3/12/2016 22.32 15.7 77.38 1 703.15 2.46
3/13/2016 20.86 10.4 76.04 0 703.41 2.64
3/14/2016 21.2 36.7 12.8 67.92 1.8 703.14 3.1
3/15/2016 17.01 26 13 84.67 1.2 704.16 1.94
3/16/2016 21.83 9 68.46 0.9 703.69 2.59
3/17/2016 20.01 13.9 75.17 0.3 703.78 2.06
3/18/2016 25.97 12.8 68.29 0 702.83 2.62
3/19/2016 18.19 28.1 10.6 67.67 0.4 703.28 2.44
3/20/2016 18.61 27.9 13.6 81.75 2.3 703.9 1.53
3/21/2016 18.49 27.7 13.1 83.53 1.8 704.28 2.65
3/22/2016 18.83 42 11.5 84.11 0.5 704.43 1.24
3/23/2016 19.55 44 12.6 86.21 1.6 703.8 1.47
3/24/2016 18.6 30.3 9.9 79.08 3.5 702.53 1.66
3/25/2016 21.02 26.6 11.9 64.3 0.1 701.65 2.68
3/26/2016 20.49 33.7 14.8 69.83 0 703.85 2.73
3/27/2016 19.15 34.5 12.6 77 3.3 704.25 1.96
3/28/2016 23.83 12.4 73.63 0.1 703.68 2.93
3/29/2016 21.41 11.4 69.83 4.9 703.63 3.15
3/30/2016 18.68 11.7 75.46 0.2 704.3 2.04
3/31/2016 21.48 9 74.96 0.1 704.54 2.33
4/1/2016 18.88 42.3 13.4 78.83 1.7 704.39 1.85
4/2/2016 19.89 13 80.79 2.9 703.7 2.16
4/3/2016 15.18 27.2 10.6 83.88 1.8 703.6 2.02
4/4/2016 20.43 9.2 74.13 0.1 703.73 1.53
4/5/2016 18.11 35.1 14 78.96 1.1 703.92 2.46
4/6/2016 20.38 12.8 73.42 0 703.39 1.92
4/7/2016 18.27 37.6 11.4 67.88 0 703.24 2.03
4/8/2016 24.23 13.1 67.42 0.9 702.27 2.68
4/9/2016 18.85 38.1 10.3 72 18.3 703.58 2.3
4/10/2016 20.54 13 74.58 5.5 703.46 2.7
4/11/2016 17.11 26.5 12.9 75.92 0.1 702.87 2.3
4/12/2016 17.16 29.5 11.6 77.71 1.8 703.05 2.35
4/13/2016 20.94 10.8 65.88 0.1 702.28 2.38
4/14/2016 21.38 12.4 74 3.9 701.82 2.32
4/15/2016 18.56 34 13 77.29 0.1 702.09 1.57
4/16/2016 16.59 28.8 12.1 81.17 5.9 702.69 1.55
4/17/2016 44 39.75 633.11
4/18/2016 17.32 31.4 11.9 79.88 1.8 704.22 2.11
4/19/2016 18.27 35.6 11.8 74.71 0.8 703.94 1.91
4/20/2016 18.88 10.8 76.92 0.1 703.34 2.02
4/21/2016 20.63 11.8 73.79 0 703.37 2.28
4/22/2016 20.17 31.7 13 73.54 0 704.11 1.61
4/23/2016 20.15 32.6 12 71.92 0.3 703.39 2.85
4/24/2016 20.35 13 73.13 1.7 702.95 2.16
4/25/2016 22.69 11.4 59.25 0.1 701.59 3.03
4/26/2016 23.64 9.5 54 0 701.27 2.8
4/27/2016 21.72 9.3 59.13 0 701.51 2.73
4/28/2016 22.63 8.3 65 0 702.27 2.23
4/29/2016 19.02 6.9 50.04 0 702.31 2.65
4/30/2016 18.56 38.2 7.5 41.58 0 701.8 2.95
5/1/2016 17.56 35.4 5.6 47.67 0 702.18 2.51
5/2/2016 20.84 8.5 41.3 0 702.77 2.91
5/3/2016 21.33 6.4 42.86 0 703.29 3.42
5/4/2016 16.39 35.3 5 49.88 0 703.83 2.46
5/5/2016 17.12 28.5 6 52.46 0 703.25 2.62
5/6/2016 18.97 43.6 10.5 58.21 0.2 703.25 2.47
5/7/2016 19.25 43.9 8 56.25 0.1 703.08 2.75
5/8/2016 21.36 8.8 53.13 0 702.05 2.48
5/9/2016 17.06 25.5 11.9 65.58 0.9 702.76 2.56
5/10/2016 20.59 36.4 11.8 51.38 0 702.47 2.52
5/11/2016 22.09 11.2 55.92 0 702.98 2.58
5/12/2016 18.38 34.9 8.2 60.75 0 704.2 2.95
5/13/2016 18.21 41.4 9.6 60.83 0 704.58 1.76
5/14/2016 19.33 8.1 71.71 1 704.87 1.71
5/15/2016 20.13 9.9 61.08 0 704.25 2.51
5/16/2016 19.71 10.3 55.79 0 704.4 2.4
5/17/2016 19.84 41.4 14.3 56.88 0 703.76 2.18
5/18/2016 20.21 10.5 61.33 0.7 703.61 3.22
5/19/2016 19.98 40.8 9.3 59.92 0.5 703.2 3.18
5/20/2016 19.37 32.2 10.4 64.17 1.8 703.88 3.16
5/21/2016 18 34 12 71.74 0.9 704.79 1.89
5/22/2016 16.38 38.9 11.8 83.04 2.1 704.81 1.96
5/23/2016 15.15 21.9 11.8 78.17 0.4 705.29 1.55
5/24/2016 17.76 11.2 73.83 0.3 705.91 1.82
5/25/2016 19.1 38.9 7.3 58.42 0 705.15 3.42
5/26/2016 21.23 10 61.67 0.1 703.6 2.47
5/27/2016 17.71 44.3 7.6 54.13 0.4 702.67 2.56
5/28/2016 16.67 25.7 9 48.04 0 703.28 2.49
5/29/2016 16.25 28.2 6.5 48.21 0 703.75 2.67
5/30/2016 18.73 6.4 37.75 0 702.27 2.6
5/31/2016 18.15 28.8 8.6 37.96 0 701.6 3.14
6/1/2016 19.95 8.7 47.08 0 702.17 3.39
6/2/2016 16.93 31.9 7.1 52.92 0 702.56 2.31
6/3/2016 20.53 8.6 51.13 0 702.58 2.88
6/4/2016 19.75 8.8 48.42 0 702.53 3.6
6/5/2016 17.85 40 9.2 43.79 0 702.5 2.95
6/6/2016 18.38 11.9 50.79 0 703.34 1.84
6/7/2016 18.34 38.3 10.8 52.17 0 703.58 2.45
6/8/2016 14.37 22.7 11 65.21 0.8 704.67 1.65
6/9/2016 13.91 21.5 9.8 65.92 0 704.6 1.17
6/10/2016 16.78 31.1 7.2 58.67 0 704.3 2.66
6/11/2016 17.34 34.3 10.7 58.5 0 705.01 2.65
6/12/2016 17.72 32.4 11.8 48.58 0 705.23 2.82
6/13/2016 14.93 30.4 5 46.29 0 705.53 3.13
6/14/2016 15.46 31 4.2 35.79 0 705.05 2.93
6/15/2016 15.65 43.7 4.1 39.58 0 706.1 3.1
6/16/2016 15.07 40.4 3.2 31.83 0 705.87 3.21
6/17/2016 15.28 33.7 5.2 27.92 0 704.13 3.37
6/18/2016 16.26 40.6 6.4 35.46 0 703.34 3.51
6/19/2016 15.89 44.7 5.5 42.71 0 703.11 3.27
6/20/2016 16.28 37.1 6.5 45.29 0 703.3 2.97
6/21/2016 16.13 43.3 5.2 44.08 0 703.12 2.98
6/22/2016 13.14 31.6 4.5 44.1 0 704.03 2.35
6/23/2016 15.19 34.1 5.1 39 0 703.88 2.91
6/24/2016 16.93 36.4 4.9 31.79 0 703.1 2.34
6/25/2016 16.07 35.2 6.7 36.17 0 702.1 3.21
6/26/2016 17.94 33.9 9.6 51.21 0 702.41 3.32
6/27/2016 13.41 25.9 10 79.5 2.1 703.71 1.8
6/28/2016 13.5 22.4 10.2 68.67 0 704.18 1.45
6/29/2016 16.37 30.3 6.9 45.78 0 703.65 2.87
6/30/2016 16.09 33.1 5.7 31.75 0 703.84 3.23
7/1/2016 15.95 31.5 6.6 30 0 703.97 3.24
7/2/2016 15.44 30.1 5 30.13 0 704.46 2.78
7/3/2016 16.53 33.4 6.6 28.17 0 704.06 3.03
7/4/2016 16.38 29.2 5.6 34.83 0 703.8 3.17
7/5/2016 18.72 35.1 7 43.71 0 703.2 2.75
7/6/2016 14.97 23.4 10.6 60.96 2.1 703.9 1.87
7/7/2016 15.68 30.1 10.2 68.46 0.6 704.13 2.44
7/8/2016 17.77 43.7 10.1 61.42 0 704.26 2.43
7/9/2016 15.75 25.5 10.5 54.38 0 704.51 2.33
7/10/2016 16.38 33.9 5.2 47.63 0 703.76 3.11
7/11/2016 17.06 34.6 7.3 40.13 0 703.27 3.1
7/12/2016 19.13 6.5 41.92 0 702.44 3.08
7/13/2016 17.28 31.8 7.2 36.71 0 702.7 3.39
7/14/2016 17.9 33.8 8.6 43.21 0 702.93 3.48
7/15/2016 18.96 35.9 8.6 45.08 0 702.24 3.55
7/16/2016 17.48 30.1 6.9 45.42 0 702.46 2.55
7/17/2016 16.54 31.3 9.6 46.75 0 703.66 2.62
7/18/2016 20.25 37 6.9 32.76 0 702.52 3.69
7/19/2016 15.9 33 6.8 27.79 0 703.55 3.48
7/20/2016 15.33 33 4 20.71 0 704.51 3.3
7/21/2016 15.28 32.5 5.6 18 0 704.48 3.65
7/22/2016 15.23 27 4.9 22.88 0 703.67 3.12
7/23/2016 16.41 33.9 7.6 26.75 0 702.62 3.59
7/24/2016 18.76 7.1 34.79 0 702.4 2.99
7/25/2016 16.32 28.9 6.6 35.92 0 701.77 2.6
7/26/2016 15.68 29.6 6.6 43.63 0 702.14 3.51
7/27/2016 15.57 30.3 5.8 44.08 0 703.09 2.72
7/28/2016 15.92 29.3 7.1 39.79 0 702.74 3.25
7/29/2016 15.11 31.5 6.2 45.67 0 702.94 3.12
7/30/2016 15.98 28.9 6.8 39.96 0 702.35 3.37
7/31/2016 21.86 10.4 46.1 0 702.29 3.15
8/1/2016 16.08 25.6 5.5 42.21 0 703.01 3.41
8/2/2016 13.73 23.6 7 45.38 0 704.32 2.72
8/3/2016 17.78 41.1 8.7 42 0 703.26 3.62
8/4/2016 18.84 41.5 7.8 46.79 0 703.35 3.01
8/5/2016 18.82 35.1 10.4 45.71 0 703.04 2.89
8/6/2016 20.3 11.5 46.25 0 703.03 2.58
8/7/2016 19.97 11.3 44.08 0 703.36 3.39
8/8/2016 20.24 11.2 44.67 0 702.66 2.82
8/9/2016 19.84 31.5 12.4 41.79 0 702.44 3.03
8/10/2016 17.61 26.6 10.8 44.13 0 702.79 3.18
8/11/2016 16.91 29.8 9.1 63.33 1.9 703.46 3.43
8/12/2016 15.19 29 7.1 61.63 1 702.93 2.21
8/13/2016 15.25 30.2 7.6 63.96 1.4 703.02 2.64
8/14/2016 15.82 28 5.5 54.08 1.2 702.57 3.13
8/15/2016 18.13 31.1 9.5 46.46 0 702.05 2.9
8/16/2016 17.99 28.9 8.8 42 0 702.88 3.39
8/17/2016 18.89 38.8 9.1 38.33 0 703.27 4.05
8/18/2016 19.38 38.8 10.1 45.25 0 703.01 2.9
8/19/2016 17.35 30.8 12.3 51.67 0 702.35 2.68
8/20/2016 19.89 40 11.1 46.25 0 702.02 3.64
8/21/2016 17.92 29.9 10.3 45.33 0 703.6 3.99
8/22/2016 15.67 24.6 10.9 48.75 0 704.28 2.81
8/23/2016 17.98 31.7 6.8 43.25 0 703.09 3.77
8/24/2016 18.79 30.2 11.5 42.29 0 702.58 3.22
8/25/2016 18.6 7.8 43.58 0 702.87 4.22
8/26/2016 18.62 32.3 8.4 39.08 0 702.76 3.45
8/27/2016 19.43 33.7 7.5 39.25 0 701.91 3.78
8/28/2016 17.71 33.6 10.4 46.88 0 702.14 3.38
8/29/2016 17.28 31.1 9.4 44.21 0.4 702.55 3.75
8/30/2016 18.85 32.2 8.7 45.79 0 701.95 3.09
8/31/2016 16.64 34.9 10.2 63.17 0.9 702.4 4.08
9/1/2016 15.73 27 9.7 64.38 0 703.26 3.91
9/2/2016 16.54 28.9 10.5 58.25 0 702.75 2.69
9/3/2016 19.85 11.4 44.63 0 702.4 3.34
9/4/2016 20.03 34.4 9.7 47.21 0 701.6 3.28
9/5/2016 20.59 37 11.3 39.5 0 702.27 4.29
9/6/2016 18.33 10.8 48.38 1.6 703.8 3.33
9/7/2016 19.79 34.2 9.7 48.54 0 703.51 2.75
9/8/2016 19.11 29.3 8.5 33.63 0 702.64 3.48
9/9/2016 18.18 29.7 9.4 44.29 0 703.33 3.69
9/10/2016 18.08 30.6 8.8 46.5 0 704.65 2.85
9/11/2016 19.43 8 42.25 0 704.71 3.15
9/12/2016 19.49 35.8 8.7 31.92 0 702.59 3.13
9/13/2016 19.95 38.7 8.4 33.67 0 702.01 3.61
9/14/2016 24.49 44.2 12.7 35.41 0.5 702.2 3.47
9/15/2016 17.23 28.6 10.6 54.38 0.9 703.68 2.07
9/16/2016 14.53 25.5 6.6 61.71 0 703.47 1.97
9/17/2016 17.43 6.5 54.21 0 703.5 3.18
9/18/2016 17.71 36.2 8.9 53.25 2.5 702.65 1.81
9/19/2016 16.36 27.7 11.6 57.04 0.4 703.58 2.07
9/20/2016 12.64 19.2 10 70.43 0.6 703.53 1.45
9/21/2016 15.82 25.9 10.3 54.04 0.1 702.35 2.9
9/22/2016 19.31 32.3 10.4 47 0 701.93 3.18
9/23/2016 18.81 30.2 13.2 51.17 0.8 703.33 2.17
9/24/2016 20.41 30.1 10.2 49.79 0 703.49 2.8
9/25/2016 13.62 17.7 10.4 71.75 4.6 703.48 2.1
9/26/2016 15.06 28.9 10.3 73.79 8 702.68 1.99
9/27/2016 17.18 31 8.7 70.04 0 702.61 2.3
9/28/2016 17.73 38.2 9.4 65.25 0.7 703.37 3.02
9/29/2016 19.13 27.2 12.2 59.83 0 702.64 1.63
9/30/2016 19.78 33.2 11.2 51.83 0 701.46 1.95
10/1/2016 18.28 26.1 10.6 57.29 4.9 701.49 2.32
10/2/2016 14.04 22.2 9.5 80.04 8.6 703.27 2.4
10/3/2016 16.75 35.2 10.7 70.54 0 702.18 1.11
10/4/2016 17.76 26.4 10.1 58.71 0 701.81 2.1
10/5/2016 17.08 24.2 12 59.88 0.6 702 3.03
10/6/2016 16.63 30.4 10.8 70.54 0.9 701.62 2.21
10/7/2016 18.33 27.7 7.1 44.92 0 699.52 3.55
10/8/2016 18.97 33.7 8.6 34.58 0 699.68 2.97
10/9/2016 20.85 30.8 11.6 47.25 1.1 700.76 3.4
10/10/2016 17.76 36.1 10.7 73.58 7.1 702.55 2.78
10/11/2016 18.13 31.7 11.1 68.13 0.5 702.01 1.99
10/12/2016 18.78 29.4 11.4 60.13 0 701.89 3
10/13/2016 17.37 32.4 10.4 68.33 4.4 701.93 2.87
10/14/2016 13.85 21 9.6 82.25 7.6 703.99 1.92
10/15/2016 19.07 7.8 75.13 2.6 703.33 2.95
10/16/2016 17.52 28.3 11.4 67.83 8.5 702.36 2.65
10/17/2016 16.8 30.9 11.4 71.88 0.8 702.27 2.38
10/18/2016 17.39 32.2 11.7 68.39 5.8 702.66 2.85
10/19/2016 16.92 37.9 12.1 70.71 1.1 702.52 2.4
10/20/2016 18.55 34.7 11.2 63.38 4.1 701.76 2.04
10/21/2016 15.04 23.7 9.8 64.33 0 701.78 2.68
10/22/2016 19.05 33.1 8.9 52.46 0 701.53 2.08
10/23/2016 19.72 31.8 13.4 49.5 0.1 701.92 3.93
10/24/2016 20.33 37.5 13.6 50.71 0 701.64 3.05
10/25/2016 21.52 12 39.42 0.1 700.27 3.53
10/26/2016 20.98 11.7 41.58 0 699.77 2.47
10/27/2016 20.67 11.5 53.68 3.4 700.03 3.35
10/28/2016 13.45 17.5 10.9 73.45 1 702.2 2.67
10/29/2016 18.13 10.4 68.92 0.6 702.03 2.04
10/30/2016 18.09 30.4 11.2 56.13 0.2 701.94 2.67
10/31/2016 17.94 7.7 59.54 0.2 700.93 2.98
11/1/2016 20.1 6.9 47.21 0 700.45 2.46
11/2/2016 20.5 32 10.6 29.13 0 700.23 3.76
11/3/2016 16.95 23.9 13.3 67.08 2.4 701.64 3.31
11/4/2016 15.47 28 12 74.83 2.2 703.59 2.88
11/5/2016 14.18 23.3 10.1 70.92 0.4 704.34 2.2
11/6/2016 15.73 27.9 8.1 61.13 0 703.13 2.13
11/7/2016 20.58 9.6 54.04 0 701.64 2.25
11/8/2016 18.91 29.4 12.8 58.17 2.1 701.73 2.58
11/9/2016 18.39 7.8 57.83 0 701.82 2.72
11/10/2016 18.46 30 8.6 48.58 0 701.88 2.87
11/11/2016 20.08 28.6 9.1 29.33 0 701.08 2.65
11/12/2016 18.96 28.9 6.4 19.21 0 700.11 3
11/13/2016 20.82 8.6 25.83 0 699.48 3.92
11/14/2016 20.18 35.4 9.5 27.79 0 699.24 3.95
11/15/2016 21.17 9.5 27.71 0 698.68 3.57
11/16/2016 21.55 9.3 25.25 0 698.74 3.79
11/17/2016 22.17 8.1 20.38 0 699.02 3.67
11/18/2016 22.11 11.8 26.83 0 700.93 3.09
11/19/2016 20.31 7.6 17.17 0 700.27 3.53
11/20/2016 19.58 34 7.4 11 0 698.96 3.72
11/21/2016 20.07 38.8 8.3 25.91 0 698.93 3.67
11/22/2016 21.6 36.3 10.1 34.71 0 699.35 3.94
11/23/2016 21.79 42.1 12.7 41.57 0 699.7 3.53
11/24/2016 20.88 32.6 11.5 39.08 0 700.01 3.25
11/25/2016 21.59 40.6 13.1 38.58 0 700.34 4.22
11/26/2016 20.6 34.4 10.6 55.3 0.5 700.75 4.06
11/27/2016 20.93 10.2 55.08 0 700.84 3.88
11/28/2016 20.13 11 56.53 0 701.73 3.24
11/29/2016 18.35 31.3 12 57.33 0 702.08 3.69
11/30/2016 17.59 37.5 11.8 66.42 10.3 702.49 2.48
12/1/2016 16.07 31.8 11.1 72.79 0.1 702.55 2.03
12/2/2016 17.55 11.8 65.25 0.9 702.01 2.29
12/3/2016 18.57 10.2 66.25 0.9 702.24 3.03
12/4/2016 15.95 35.4 11.1 80.08 4.5 702.43 2.83
12/5/2016 17.31 33 7.4 73.13 1.7 701.64 2.08
12/6/2016 13.8 19.9 11.1 80.33 0.3 702.16 1.92
12/7/2016 18.5 44.4 9.2 70.58 0 701.48 3.16
12/8/2016 17.41 27.8 11.4 68.83 0 701.05 2.76
12/9/2016 16.75 31.5 12.4 68.96 2.7 701.08 2.6
12/10/2016 18.16 11.6 84.38 3.3 701.57 2.12
12/11/2016 18.48 30.3 10.8 69.96 0.3 701.52 2.07
12/12/2016 18.48 33.1 11.6 61.79 2.6 700.96 2.87
12/13/2016 18.58 31.2 10.6 66.92 12.1 700.93 2.95
12/14/2016 18.13 28.1 12 64.42 0.1 701.28 2.8
12/15/2016 14.25 17 12 83.71 4.1 703.29 1.6
12/16/2016 14.3 21.9 9.6 76.67 0.2 702.78 1.47
12/17/2016 17.79 32.2 8.6 63.08 0.1 701.4 1.63
12/18/2016 19.02 28.1 11.2 58.67 0.2 700.73 2.45
12/19/2016 23.1 29.38 630.74
12/20/2016 16.85 28.5 8.8 69.38 1.2 700.1 2
12/21/2016 17.64 31.8 11.6 73.96 1.4 699.64 2.33
12/22/2016 13.68 19.1 9.2 89.25 7.5 701.22 1.55
12/23/2016 15.75 34.1 8.4 74.79 0 701.5 1.4
12/24/2016 18.4 28.2 13.4 65.25 0 701.11 2.34
12/25/2016 21.11 30.5 14.8 64.13 0 700.29 1.72
12/26/2016 19.81 30.7 12.1 57.26 0 700.18 2.41
12/27/2016 20.33 31.4 13.3 56.42 0.8 700.01 2.64
12/28/2016 18.04 29.2 13.1 61.38 0.6 700.42 2.8
12/29/2016 16.78 28.8 10.7 74.29 2.1 701.81 2.73
12/30/2016 17.52 28.9 11.7 72.08 1 701.78 3.07
12/31/2016 15.56 35.5 10.9 81.21 9.6 702.27 2.13
1/1/2017 16.54 44.4 9.9 79.58 5.1 702.78 2.18
1/2/2017 16.03 37.2 11.9 84 2.2 702.7 1.98
1/3/2017 15.97 27.4 12.9 88.08 3 701.78 1.83
1/4/2017 16.92 27.7 10.8 77.22 0.1 700.26 1.93
1/5/2017 18.36 32 10.3 65.96 5.4 700.21 2.87
1/6/2017 14.74 21.2 11.9 86.71 5.3 702.05 1.4
1/7/2017 14.83 22.3 11.2 75.92 1.2 703.24 2.38
1/8/2017 14.26 22.9 11 78.67 6.2 702.66 1.95
1/9/2017 18.41 7.5 70.83 0 700.58 2.31
1/10/2017 15.41 20.4 10.7 83.17 6.6 700.6 2.28
1/11/2017 16.4 33.2 10 78.42 0.7 700.84 2.03
1/12/2017 18.71 38.3 13.8 78.79 2.6 701.79 3.02
1/13/2017 14.69 19 11.8 82.17 4.5 702.15 1.9
1/14/2017 12.84 18.7 10.7 89.29 5.6 701.28 1.12
1/15/2017 12.2 15.7 10.3 91.38 3.8 700.28 1.21
1/16/2017 11.64 17.8 9.4 92.17 12.7 700.86 1.91
1/17/2017 14.08 25 8.7 78.13 0.2 700.97 1.25
1/18/2017 20.97 12.8 60.33 0 700.43 2.64
1/19/2017 18.61 26.5 11.3 74.5 3.4 701.41 1.92
1/20/2017 18.13 30.9 13.9 79.88 2.6 702.69 1.45
1/21/2017 14.68 21 10.7 71.13 0.1 702.97 1.91
1/22/2017 13.21 21.3 9.3 85.33 10.7 703.05 1.54
1/23/2017 14.4 28.5 8.8 85.71 2.2 701.9 1.32
1/24/2017 22.2 43.71 630.66
1/25/2017 15.27 21.5 12.5 85.17 0.7 702.27 2.03
1/26/2017 16.76 36.5 9.7 74.33 3 703.06 2.02
1/27/2017 15.73 31.4 10 78.96 0.3 703.61 1.1
1/28/2017 15.04 19.1 12.5 73.33 0 703.1 1.81
1/29/2017 18.76 44.2 9.6 67.96 0.6 703.2 2.38
1/30/2017 19.55 24.6 15.1 75.21 0.5 702.72 1.2
1/31/2017 20.06 33.9 12.6 75.5 0.9 701.94 1.21
2/1/2017 18.84 31.7 9.4 64.67 0 701.16 2.15
2/2/2017 18.35 37.8 11.1 66.08 1.5 700.99 1.94
2/3/2017 20.87 10.5 61.96 0 700.94 2.84
2/4/2017 17.45 27.3 12.4 78.13 0.9 701.83 2.03
2/5/2017 18 10.4 72.09 0 701.49 1.92
2/6/2017 19.3 10.3 73.67 2.7 701.43 2.09
2/7/2017 17.08 28.2 12 72.88 0.4 701.58 1.86
2/8/2017 19.46 10.3 67.92 0 701.53 2.53
2/9/2017 17.18 24.4 13.3 80.04 1.3 702.65 2.51
2/10/2017 18.34 44.9 10.1 72.88 0 701.56 2
2/11/2017 16.36 23.7 9 85.33 3.8 701.39 2.26
2/12/2017 17.71 8.4 82.71 2 700.75 1.88
2/13/2017 16.83 22.3 11.5 89.04 5.6 700.08 1.5
2/14/2017 14.86 20.3 10.2 93.25 7.5 701.58 1.45
2/15/2017 11.91 17.5 8.3 91.71 9.9 703.51 1.55
2/16/2017 19.24 5.9 64.38 0.1 702.58 2.93
2/17/2017 18.05 25.5 12.9 74.33 0 702.32 3.21
2/18/2017 19.73 11.7 80.42 1.9 702.01 2.61
2/19/2017 -23.7 36.2 28.88 631.37
2/20/2017 16.83 29.5 12.5 76.42 1.7 702.65 2.24
2/21/2017 15.6 26.5 11 82.79 2.6 702.28 1.95
2/22/2017 13.84 31.6 10.8 85.13 5.9 701.61 1.67
2/23/2017 15.02 28.8 9.4 76.83 0.6 701.65 1.75
2/24/2017 17.58 12.9 80.79 0.2 701.2 1.71
2/25/2017 17.68 12.8 84.42 9.1 701.28 1.85
2/26/2017 14.08 19.8 10 89.33 7 701.38 1.83
2/27/2017 17.75 9.4 83.08 3.1 701.75 2.03
2/28/2017 17.39 27.5 13.1 80.54 2.1 701.2 1.64
3/1/2017 18.23 33.8 10.3 74.71 0.2 699.88 2.34
3/2/2017 18.4 30.8 13.2 71.92 0.2 700.06 2.14
3/3/2017 17.33 25.4 13.9 87.5 3 701.46 2.07
3/4/2017 16.95 29.4 12.4 82.5 7 701.22 2.41
3/5/2017 19.25 12.8 84 2.3 700.93 1.75
3/6/2017 16.47 31.7 13 83.29 9 701.55 2.13
3/7/2017 19.04 10.9 75.29 0.2 701.85 2.03
3/8/2017 15.34 19.8 10.6 86.33 4.5 702.44 1.4
3/9/2017 16.37 11.1 83.17 3.1 701.39 1.82
3/10/2017 15.5 25.3 10.1 80.08 6.2 702.04 2.53
3/11/2017 14.01 19.5 10.7 87 7.4 702.87 1.65
3/12/2017 12.83 18.2 10 85.58 5.5 702.72 1.38
3/13/2017 14.68 24.3 8.6 76.67 0.1 701.78 1.99
3/14/2017 15.49 20.7 12.4 89 9.3 702.76 1.76
3/15/2017 15.97 23.8 11.7 89.21 8.8 702.62 1.63
3/16/2017 17.38 32.1 12 91.5 7.5 702.79 1.39
3/17/2017 15.45 22.7 9.5 82.71 0.1 701.99 1.85
3/18/2017 17.26 34.2 11 86.13 6.2 702.16 1.9
3/19/2017 15.01 18.6 12.7 85.35 1.7 702.65 1.22
3/20/2017 18.36 12.5 79.92 1 702.48 1.9
3/21/2017 18.58 33.6 10.5 67.54 0.7 702.69 2.78
3/22/2017 17.4 42.9 9.9 72.33 1.2 702.48 2.66
3/23/2017 10.5 206.47
7/1/2017 16.04 22.3 13 67.38 0 704.1 3.42
7/2/2017 16.05 30.8 10.5 77.25 0.6 704.24 2.75
7/3/2017 17.59 32.2 8.2 59.58 0.1 703.26 2.29
7/4/2017 16.88 28.9 7 54.21 0 702.9 1.9
7/5/2017 18.79 7.7 54.04 0 703.44 2.67
7/6/2017 17.63 31.7 6.3 54.96 0 704 2.86
7/7/2017 16.85 24.7 12.5 60.08 0 704.26 0.99
7/8/2017 18.3 7.6 56 0 703.67 2.34
7/9/2017 15.96 34.5 9.2 56.46 0 704.19 2.74
7/10/2017 16.28 36.2 4.5 52.83 0 703.93 2.58
7/11/2017 16.48 39.2 5.2 53.29 0 704.33 2.6
7/12/2017 16.72 31 9.8 52.83 0 703.9 2.28
7/13/2017 16.6 5.3 49.67 0 703.8 2.37
7/14/2017 16.33 32.8 5.1 39.13 0 703.71 2.53
7/15/2017 16.83 29.8 5.4 35.04 0 702.9 2.51
7/16/2017 18.35 7.4 38.42 0 702.06 2.89
7/17/2017 17.46 5.8 51.13 0 703.43 3.02
7/18/2017 18.3 7.3 56.33 0 704.04 2.06
7/19/2017 18.61 35.8 10.2 41.08 0 702.92 2.4
7/20/2017 18.85 6.3 28.67 0 703.02 3.12
7/21/2017 17.7 40.8 6.5 26.38 0 703.22 3.35
7/22/2017 15.67 38 5.4 30.83 0 704.15 3.48
7/23/2017 17.01 6.5 38.71 0 704.17 3.41
7/24/2017 15.28 27.2 5.7 34.38 0 704.43 3.13
7/25/2017 18.65 5.7 48.13 0 704.7 2.49
7/26/2017 20.61 9.1 52.92 0 703.56 2.93
7/27/2017 19.6 6.8 47.71 0 703.31 2.93
7/28/2017 17.75 5.6 43.92 0 703.03 2.92
7/29/2017 16.52 43.6 4.9 44.5 0 703.36 2.81
7/30/2017 17.13 34.5 5.3 47.25 0 704.14 2.75
7/31/2017 18.39 33.7 9 46.79 0 703.57 2.38
8/1/2017 17.97 5.2 45.08 0 703.09 2.3
8/2/2017 17.77 34 7.3 43.67 0 702.87 2.85
8/3/2017 17.77 6.6 39.63 0 704.62 3.11
8/4/2017 18.5 42.8 4.7 35.83 0 704.06 2.56
8/5/2017 17.82 7.9 46.33 0 703.28 2.73
8/6/2017 17.44 34 6 42.75 0 702.82 2.74
8/7/2017 17.22 38.3 6.4 36.67 0 702.96 3.01
8/8/2017 17.94 8 34.42 0 702.98 3.27
8/9/2017 18.6 7.3 43.21 0 703.75 3.16
8/10/2017 19.55 11.6 45.04 0 703.06 2.69
8/11/2017 18.03 34.8 7.5 37.38 0 702.48 2.63
8/12/2017 19.45 43.3 8.1 33.96 0 702.05 3.2
8/13/2017 18.91 35.5 9 47.54 0.1 701.96 2.6
8/14/2017 19.27 35.3 10.6 49.04 0 701.61 2.83
8/15/2017 19.28 28.5 12.8 40.38 0 701.74 2.86
8/16/2017 18.88 31.4 10.4 38.54 0 701.55 2.75
8/17/2017 19.17 33.1 10.8 38.33 0 700.95 3.23
8/18/2017 14.01 19.8 10.4 63.58 2 702.11 1.53
8/19/2017 17.31 34.3 5.4 42.17 0 701.45 2.68
8/20/2017 18.2 32.4 10.7 34.75 0 701.57 4.29
8/21/2017 14.87 21.2 11 65.21 1 703.64 2.02
8/22/2017 15.96 10.7 71.58 1.1 703.95 1.89
8/23/2017 16.68 29.4 4.7 51.08 0 701.64 2.66
8/24/2017 16.95 33.2 8.4 50.79 0 701.49 3.12
8/25/2017 17.68 40.7 8.3 51.29 0 702.06 2.43
8/26/2017 18.56 32.9 12.9 45.79 0 701.72 2.6
8/27/2017 20.65 12.1 46.63 0 701.3 3.2
8/28/2017 14.99 20.5 11 57.33 1.7 702.66 2.82
8/29/2017 14.93 26.8 9.8 60.71 0.2 703.21 1.73
8/30/2017 17.89 33.4 10.7 49.38 0 703.31 3.07
8/31/2017 15.82 24.2 12.5 51.25 0 704.14 1.66
9/1/2017 19.2 43.1 10.4 46.83 0 703.84 3.26
9/2/2017 15.27 21.3 10 55.5 0 705.3 2
9/3/2017 16.92 36.7 6.3 47.04 0 704.87 2.33
9/4/2017 20.16 38.3 8.8 49.33 0 703.53 1.9
9/5/2017 17.85 32 8.3 48.54 0 703.48 2.83
9/6/2017 21.91 10.2 52 0 702.9 2.56
9/7/2017 20.27 9.2 49.29 0 701.75 2.86
9/8/2017 19.02 33.1 12.6 45 0 701.1 3.55
9/9/2017 21.01 41.5 10.9 43.08 0 701.14 3.13
9/10/2017 20.09 11.1 44.83 0 701.98 4.46
9/11/2017 16.18 22.2 10.1 54.79 0.6 702.38 2.39
9/12/2017 18.31 41.5 12.3 58.79 0.1 702.95 2.56
9/13/2017 17.41 29.1 11.9 62.92 0.1 703.4 1.76
9/14/2017 20.09 10.9 65.96 0.2 703.23 3.51
9/15/2017 14.7 20.7 11.7 71.08 2.4 703.23 1.02
9/16/2017 16.84 37.4 11.2 69.13 0.2 703.18 2.21
9/17/2017 13.19 16.8 10.6 75.5 2.1 704.08 1.02
9/18/2017 15.7 34.9 10.5 67.38 0.3 703.95 0.96
9/19/2017 18.65 44.2 6.8 53.75 0 703.88 2.26
9/20/2017 19.4 32.4 8.7 41.79 0 703.01 3.15
9/21/2017 20.46 8.8 45.46 0 702.18 2.79
9/22/2017 21.81 12.3 49.42 0 701.84 2.97
9/23/2017 20.18 35.5 13.8 48 0 701.88 2.23
9/24/2017 18.37 37.9 13.4 53.46 0.9 702.45 3.72
9/25/2017 16.63 27 12.4 63.75 0 702.53 2.31
9/26/2017 16.5 23 12.8 55.79 0 701.66 3.07
9/27/2017 19.6 12.6 52.79 0 700.83 2.28
9/28/2017 20.29 36.7 11 47.33 0.5 700.96 2.73
9/29/2017 18.84 44.2 11 60.92 4.6 701.99 2.23
9/30/2017 19.93 8.1 58.92 0 701.89 1.66
10/1/2017 19.41 32.8 9.7 40.33 0 700.07 3.25
10/2/2017 19.31 39 8.8 44.88 0.2 699.7 3
10/3/2017 19.56 31.4 12.1 46.5 0 700.23 3.44
10/4/2017 17.82 34.6 10.6 51.29 0.5 701.68 2.95
10/5/2017 21.33 10.1 48.08 0 701.13 2.64
10/6/2017 20.38 7.9 49.79 0 702.48 2.25
10/7/2017 20.07 38.2 8.5 51.04 0 703.45 2.2
10/8/2017 18 39.8 8 58.88 0.8 702.83 2.17
10/9/2017 16.99 37.6 8.4 48.78 0 701.6 1.77
10/10/2017 20.14 8.8 47.71 1.9 700.75 3.51
10/11/2017 18.88 33.6 12.7 51.75 3.4 700.15 2.89
10/12/2017 16.47 24.3 12.4 56.38 0 701.07 1.85
10/13/2017 21.13 9.6 52.54 0 701.2 2.65
10/14/2017 19.15 41.4 11.6 61.33 1.2 701.05 1.42
10/15/2017 15.04 19.6 13 67.79 0.4 702.55 2.41
10/16/2017 17.71 11.7 65.21 0.6 703.61 1.91
10/17/2017 16.12 25.3 11.9 63.92 0.1 703.88 2.15
10/18/2017 18.17 34.5 8.4 56.71 0 703.32 2.15
10/19/2017 21.53 10.4 46.21 0 701.42 3.18
10/20/2017 22 37.9 14.7 46 0 700.18 2.16
10/21/2017 18.55 10.4 65.54 197.1 302.35
10/22/2017 16.32 30.4 9.7 71.67 12.6 702.95 2.55
10/23/2017 16.39 10 80.96 1.1 703.2 1.74
10/24/2017 20.49 11.4 64.38 0 701.21 2.7
10/25/2017 19.61 40.9 11.8 66 1.2 701.6 2.87
10/26/2017 19.66 10.5 62.58 6.3 701.42 2.39
10/27/2017 19.73 44.2 10.4 71.42 1.2 701.38 1.98
10/28/2017 20.88 13.6 63.5 0 700.52 2.73
10/29/2017 16.24 26.7 11 72.38 5.6 701.53 2.23
10/30/2017 17.01 10.6 77.38 0.2 702.28 2.13
10/31/2017 20.7 7.5 53.88 630.15
11/1/2017 19.87 8.6 53.96 0.1 700.61 2.37
11/2/2017 18.25 31.5 12 51.29 954.79
11/3/2017 17.95 40.2 8.2 58.75 0.9 701.42 2.5
11/4/2017 18.57 7.8 59.38 10474 442.25
11/5/2017 19.2 36.1 9.6 71.63 2.7 701.34 2.51
11/6/2017 18.14 39.1 14 70.5 2 701.37 1.48
11/7/2017 12.8 19.3 9.4 81.79 7.3 701.47 1.55
11/8/2017 17.99 6.6 71 0.3 700.09 2.68
11/9/2017 19.05 34.6 10.7 73.75 7.3 700.15 1.18
11/10/2017 19.7 12.1 77.46 5.1 700.01 1.75
11/11/2017 21.25 12.9 74.5 1.6 700.3 2.84
11/12/2017 19.55 39.2 13.2 73.13 0.3 700.66 1.8
11/13/2017 20.38 44.5 11.1 55.92 0 700.43 2.53
11/14/2017 22.16 10.7 48.13 0 700.5 3.08
11/15/2017 16.9 22.8 13 60.29 0.1 701.25 2.46
11/16/2017 16.67 32.9 11.3 67.92 1.3 701.1 1.96
11/17/2017 18.51 40.6 10.2 72.67 0 700.57 1.87
11/18/2017 14.72 27 10.2 85.88 2.8 700.83 1.91
11/19/2017 23.27 10.4 69.46 0 699.92 2.68
11/20/2017 19.55 9.9 51.63 0.1 700.09 2.28
11/21/2017 17.93 29 10.3 66.96 0.5 701.22 1.45
11/22/2017 20.06 9.8 63.73 4 701.14 2.5
11/23/2017 18 44.2 9.7 66.13 4.2 701.23 2.09
11/24/2017 15.05 31.3 9.5 77.83 0.7 701.85 1.4
11/25/2017 16.04 9.2 74.14 0.2 702.49 1.35
11/26/2017 11.22 17.3 6.4 70.75 0.6 702.25 1.37
11/27/2017 13.02 19 8.1 66.75 1.2 700.95 1.7
11/28/2017 10.94 13.6 8.5 80.58 0.6 702.53 0.81
11/29/2017 11.88 20.8 7.4 73.21 0.7 702.13 1.68
11/30/2017 13.76 23.7 6.7 65.58 0 700.09 1.59
12/1/2017 12.47 19.9 8.5 71.67 5.9 700.19 2.2
12/2/2017 12.25 18.3 8.6 73.5 0.2 700.69 1.88
12/3/2017 13.32 21.1 9 64.17 0 700.44 2.98
12/4/2017 13.04 18.8 9.3 67.58 0.3 700.81 2.83
12/5/2017 11.61 17.7 9.4 76.83 2.4 702.1 1.68
12/6/2017 10.43 14.9 7.6 78.29 10.3 702.8 2.28
12/7/2017 10.73 18.4 7.4 78 2.8 702.23 1.55
12/8/2017 11.58 20.5 5.8 70.67 0 701.92 2.1
12/9/2017 12.98 22 6 62.83 0 702.03 2.44
12/10/2017 15.13 24.5 8.3 57.42 0 701.24 2.39
12/11/2017 12.7 16.7 8.6 62.96 0 701.49 1.86
12/12/2017 12.93 19 9.4 61.92 0 701.9 2.25
12/13/2017 12.57 20.1 6.4 59.79 0 702.06 2.15
12/14/2017 14.58 22.6 6.7 54.3 0 701.4 2.17
12/15/2017 13.48 20.9 9.4 67.83 3.2 701.6 2
12/16/2017 12.75 18.9 9.4 73.5 1.9 701.51 1.51
12/17/2017 12.83 21 9.6 73.67 3.2 701.49 1.85
12/18/2017 13.39 24 8 65.25 0.3 701.08 2.05
12/19/2017 12.49 17.3 9.9 69.88 0 701.45 1.8
12/20/2017 14.25 23.1 10.6 63.83 0 700.37 2.28
12/21/2017 13.66 22.1 8.4 63.46 0.1 700.68 1.75
12/22/2017 13.63 21.9 9.4 65.42 1.3 700.86 2.59
12/23/2017 13.66 21.7 8.6 61.88 0.2 701 2.2
12/24/2017 13.86 23.7 6.6 56 0 700.8 2.35
12/25/2017 12.74 23.1 5.9 58.13 0.1 700.6 2.43
12/26/2017 11.95 21.7 6.5 67.71 4.6 700.92 2.21
12/27/2017 12.14 19.7 8.5 73.42 2.8 701.5 2
12/28/2017 11.63 17.9 9.1 77.79 4.7 701.75 1.77
12/29/2017 11.18 16.4 8.1 77.88 5.2 702.04 1.65
12/30/2017 10.3 17.9 7.2 76.04 2.9 702.13 1.63
12/31/2017 10.39 17.2 5.3 73.58 0 701.84 1.76
1/1/2018 12.39 19.9 5.3 59.5 0 701.48 2.2
1/2/2018 12.92 18.5 8.1 49.29 0 701.1 2.32
1/3/2018 14 22.4 8 46.13 0 700.56 2.57
1/4/2018 11.84 19 8.9 72.75 0.7 702.17 2.26
1/5/2018 12.68 20.3 7.7 69.42 1.4 702.23 2.45
1/6/2018 11.08 15.1 8.2 78.25 3.7 702.44 1.44
1/7/2018 11.49 20.2 7.5 74.54 3.2 701.7 2.23
1/8/2018 9.07 11.7 8 82.21 3.8 702.22 1.23
1/9/2018 10.9 15.1 8.3 80.25 1.5 701.17 1.25
1/10/2018 10.46 14.7 8.1 83.5 10 701.71 0.65
1/11/2018 10.89 15 8.3 81.17 3.4 702.26 1.22
1/12/2018 12.76 20.1 8.5 71.92 0 701.5 1.47
1/13/2018 11.07 18.4 8.1 82.08 9.9 701.25 2.06
1/14/2018 10.95 18.2 7.4 78.63 0.7 700.65 2.25
1/15/2018 10.73 19.3 8.1 78.75 7 701.07 1.29
1/16/2018 11.98 19.2 8 75.58 1.1 701.7 2.19
1/17/2018 11.17 16.3 7.8 77.75 3.5 702.06 2.46
1/18/2018 10.22 17.9 5 79.25 14.9 702.59 1.94
1/19/2018 11.13 15.6 8.2 81.46 3.4 702.09 1.94
1/20/2018 10.93 16.4 8.7 81.21 1.2 702.1 1.51
1/21/2018 12.03 16.5 9.4 76.58 1.4 701 1.52
1/22/2018 10.06 16.2 7.3 80.42 11.2 701.24 2.26
1/23/2018 11.95 20.7 4.7 60.54 0 700.74 2.83
1/24/2018 10.85 18.8 4.6 62.88 0.2 701.7 2.34
1/25/2018 11.01 19.9 4.3 65.29 0.4 702.03 2.29
1/26/2018 12.44 21 7.4 64.08 7.3 701.42 2.28
1/27/2018 10.9 21.1 4.2 69.54 6 701.54 1.83
1/28/2018 12.52 23.1 4.2 62.08 0.6 699.75 2.05
1/29/2018 13.08 22.3 6.1 60.13 0.6 699.22 2.45
1/30/2018 13.94 22.6 6.3 60.13 3.1 699.5 2.2
1/31/2018 14.28 22.1 7.4 55.13 0.1 700.32 3.47
2/1/2018 14.14 23.5 6.9 55.13 2 701.25 3.03
2/2/2018 13.93 21.8 6.6 59.33 0.1 701.42 1.73
2/3/2018 14.29 22.9 8.3 59.71 1.3 700.47 2.16
2/4/2018 13.39 23.7 8.8 65.79 4.2 700.74 2.34
2/5/2018 14.58 23.3 9.7 66.38 0 700.73 1.85
2/6/2018 12.13 15.2 10.3 81.42 2.6 702.03 1.46
2/7/2018 13.63 20.2 7.2 65.67 0 701.08 1.51
2/8/2018 13.16 20.3 10 69.25 0.3 700.66 2.06
2/9/2018 13.78 20.6 8.8 66.92 3.7 700.43 2.51
2/10/2018 12.37 17.4 8.7 73.25 0 700.91 1.9
2/11/2018 14.13 19.8 9.7 62.96 0 701.43 2.53
2/12/2018 13.93 20.7 8 57.08 0 701.35 2.23
2/13/2018 14.15 22.4 10.3 63.92 0.5 701.55 1.68
2/14/2018 12.19 17.2 9.9 79 2.2 702.15 1.01
2/15/2018 11.25 16.9 7.7 80.46 9.4 702.47 1.39
2/16/2018 10.94 16.3 8.7 85.96 5.7 703.22 0.77
2/17/2018 12.39 18.7 9.8 79.33 631.49
2/18/2018 13.54 20 9.8 71.88 0.1 700.99 1.74
2/19/2018 10.83 15.6 7.8 81.46 3.2 700.78 2.03
2/20/2018 11.65 21.1 4.9 72.38 1.9 700.68 1.7
2/21/2018 13.47 23.1 6.8 51.7 0 701.23 2.45
2/22/2018 13.85 22.8 6 47.38 0 700.68 2.77
2/23/2018 14.08 21.5 9.4 55.33 0 700.63 1.57
2/24/2018 14.15 22.7 9 51.92 0 700.26 2.54
2/25/2018 11.1 16.1 6.4 64.29 1.4 701.41 1.65
2/26/2018 10.9 15.6 8.2 80.63 3.1 702.03 1.25
2/27/2018 10.81 15.5 8 80.17 2.9 701.74 1.6
2/28/2018 13.01 20 6.7 66.63 0.2 700.82 2.29
3/1/2018 11.32 15.1 9.1 81.96 2.8 702.3 1.7
3/2/2018 11.54 17.6 8.1 82.38 3.4 702.66 1.06
3/3/2018 11.28 16.8 8.8 81.67 4.9 702.1 1.44
3/4/2018 11.47 18.5 8.4 78.25 2.7 701.67 1.59
3/5/2018 12.58 19.2 7 66.5 0.2 701.17 2.17
3/6/2018 11.6 18.8 7.7 78.83 9.4 701.88 1.98
3/7/2018 10.6 17.2 6.9 80.25 2.6 702.9 1.8
3/8/2018 13.06 19.4 8.5 71.58 0 702.24 2.03
3/9/2018 12.34 17.2 9.4 77.5 1.4 702.37 1.58
3/10/2018 13.05 18.5 8 69.58 0.1 702.04 1.98
3/11/2018 13.28 19.4 8.1 69.71 0 702.04 1.03
3/12/2018 13.97 19.9 9.7 65.08 0 701.85 1.77
3/13/2018 15.11 23.5 8.8 59.75 0.1 701.71 2.43
3/14/2018 12.02 19.8 7.5 74.25 8.9 703.02 2.5
3/15/2018 13.23 21.1 8.7 68.08 0.1 702.25 1.75
3/16/2018 12.8 20.5 7.8 69.17 0.3 702.27 2.72
3/17/2018 12.34 19.8 9.4 77.42 2.7 701.84 2.2
3/18/2018 11.98 17.9 8.5 78.38 4.3 701 1.37
3/19/2018 11.9 17.2 9.4 80.71 4.7 700.37 1.38
3/20/2018 12 18.2 9 78.75 1.5 700.93 1.24
3/21/2018 12.31 19 8.6 75.58 3.6 702.19 1.62
3/22/2018 11.57 16.6 8.6 81.33 5.9 702.71 1.5
3/23/2018 10.89 17.7 8.1 80.33 3.7 702.31 1.29
3/24/2018 10.79 20.8 7.5 79.5 13.5 701.93 1.36
3/25/2018 12.03 20.1 7.1 73.5 2.6 701.77 1.96
3/26/2018 11.28 18.4 6.4 74.79 8.4 702.12 1.71
3/27/2018 10.93 17.9 7.8 80.46 3.4 701.89 1.6
3/28/2018 12.02 20.8 5.2 72.54 0 701.13 1.95
3/29/2018 13.37 20.2 10.1 73.71 0.2 701.3 1.79
3/30/2018 13.7 22.1 8.8 70.08 0.3 701.32 1.48
3/31/2018 14.89 23.7 8.3 63.17 0 700.33 1.55
4/1/2018 12.01 16 8.7 73.04 0.1 700.81 1.37
4/2/2018 10.83 13.2 8.9 80.29 0.8 701.31 1.07
4/3/2018 10.94 17.5 7 78.42 1.5 701.5 1.31
4/4/2018 10.36 13.2 8.4 84.13 2.1 702.35 1.41
4/5/2018 10.48 16.6 7.4 79.63 3 702.09 1.54
4/6/2018 9.65 18.2 5.2 78.58 5 702.18 2.08
4/7/2018 11.2 18.8 6.8 76 0.8 701.65 1.42
4/8/2018 10.4 15.4 8.4 84.79 4.5 702.49 1.18
4/9/2018 9.89 17.5 6.8 80.33 7.5 703.19 1.79
4/10/2018 11.8 18.6 8.2 74.21 0.8 703.12 1.58
4/11/2018 10.73 20.7 4.4 74.38 4.1 702.7 1.65
4/12/2018 11.37 20.8 5.8 72.29 0.1 702.08 2.4
4/13/2018 10.09 12.5 8.5 84.92 1 703.36 1.01
4/14/2018 9.68 13.7 7 84.38 5.4 704.9 0.57
4/15/2018 10.85 16.1 7.4 78.42 0.2 705.03 1.08
4/16/2018 11.71 21.4 4.8 61.33 0 704.42 1.79
4/17/2018 12.03 22.2 4.8 59 0 703.12 2.43
4/18/2018 12.05 20.7 4.3 58.63 0 703.17 2.13
4/19/2018 12.32 21.4 5.3 58.25 0 703.51 2.26
4/20/2018 13.19 19.9 9.4 63.75 0.1 702.88 1.93
4/21/2018 13.18 20.4 8.4 65.75 3.8 702.54 2.4
4/22/2018 11.94 18.4 9 70.38 1.3 702.69 1.73
4/23/2018 11.63 19.4 7.5 73.38 0.3 703.08 1.84
4/24/2018 12.63 20 7.6 70.04 3.3 703.31 2.17
4/25/2018 11.43 19.3 8.3 76.38 3.4 704.17 1.78
4/26/2018 10.69 16.4 7.8 81.88 3.4 704.27 0.97
4/27/2018 9.7 15.5 6.1 78.38 2.5 703.8 1.18
4/28/2018 8.36 11.4 5.7 86.29 2 704.37 0.72
4/29/2018 10.67 18.1 6.2 79.04 3.5 704.28 1.03
4/30/2018 11.79 18.5 7.3 72.54 0.1 703.67 1.68
5/1/2018 10.64 15.7 7.3 75.29 0.3 704.46 1.42
5/2/2018 11.35 17.3 7.7 75.13 0 704.44 1.28
5/3/2018 11.66 21.2 4.8 70.88 0.4 702.96 1.46
5/4/2018 13.23 22 6 60.83 1.2 702.04 2.25
5/5/2018 12.71 20.9 7.2 65.54 10.1 703.1 3.15
5/6/2018 11.78 19.3 6.5 72.58 0.4 704.38 1.2
5/7/2018 10.71 16.2 8.7 82.92 2.7 704.6 0.86
5/8/2018 11.3 17.2 6.2 73.96 0.6 703.71 1.52
5/9/2018 12.25 20 8.4 73.63 0.4 703.4 1.04
5/10/2018 13 21.4 8.3 68.08 0 702.83 1.34
5/11/2018 11.11 20.6 5.9 75 0.5 703.66 1.3
5/12/2018 12.05 22.2 4.9 65.63 0 703.4 1.75
5/13/2018 11.44 16.9 8.1 72.63 0.3 703.11 1.84
5/14/2018 11.84 20.3 5 66.25 0 701.88 2.08
5/15/2018 12.78 20 7.9 63.25 0 702.17 1.93
5/16/2018 13.1 20.7 5.8 59.42 0 702.02 2.25
5/17/2018 12.9 21 7.2 68.92 3.9 702.17 1.73
5/18/2018 10.94 18.8 7.6 77.21 3.2 702.63 1.9
5/19/2018 10.92 18.4 4.7 68.13 0.1 703.08 1.96
5/20/2018 11.77 20.8 5.2 67.04 0.4 702.82 2.08
5/21/2018 11.41 20.7 6.4 73.96 7.6 702.3 1.98
5/22/2018 12.88 22.1 6 63.63 0.1 702.12 1.83
5/23/2018 13.44 19.4 9 62.17 0 703 1.83
5/24/2018 12.26 21.3 6.5 57 0 704.08 2.23
5/25/2018 11.8 21.3 4 53.88 0 703.56 2.01
5/26/2018 12.64 21.1 8.3 60.33 0 702.87 1.76
5/27/2018 13.02 21 7.6 58.17 0 702.83 2.31
5/28/2018 13.54 22.4 8.1 58.08 0 702.8 1.95
5/29/2018 13.76 22.5 8.7 51.38 0 702.51 2.14
5/30/2018 13.87 22.3 8.2 45.83 0 702.06 2.73
5/31/2018 13.01 22.5 7.1 41.21 0 701.66 3.17
6/1/2018 12.13 20.8 7.3 48.79 0 701.52 2.61
6/2/2018 12.59 19.4 8.3 60.92 0 701.85 1.79
6/3/2018 10.65 14.5 8.6 79.92 3.9 703.84 1.29
6/4/2018 10 14.2 8.2 86.13 2.5 705.03 1.27
6/5/2018 11.05 18.4 6.1 73.21 0.1 704.14 1.46
6/6/2018 11.8 21.1 4.7 59.38 0 702.65 1.78
6/7/2018 11.6 21.1 4.6 54.75 0 703.06 2.31
6/8/2018 11.08 19.3 3.8 55.04 0 704.03 2.54
6/9/2018 11.88 19.3 4.1 55.25 0 703.53 2.52
6/10/2018 12.33 20.9 6.8 58.21 0 702.85 2.15
6/11/2018 12.81 20.8 7.2 54.83 0 702.4 2.02
6/12/2018 13.44 21.2 8 55.75 1.2 702.62 2.7
6/13/2018 11.93 18.1 8.9 74.13 0.1 703.54 2.01
6/14/2018 12.31 20.4 6.4 62.75 0 703.39 2.08
6/15/2018 11.74 18.1 7.4 62 0 703.6 1.53
6/16/2018 12.02 18.8 7.8 64.25 0.4 703.95 1.88
6/17/2018 11.6 18 6 58.38 0 705.07 1.52
6/18/2018 11.1 16.9 5.7 51.63 0 705.46 0.92
6/19/2018 11.38 21.1 3.9 41.75 0 704.41 2.41
6/20/2018 11.42 21.3 3.1 43.83 0 703.77 2.43
6/21/2018 10.94 20.8 3.9 46.71 0 704.03 2.52
6/22/2018 11.47 21 4.5 43.83 0 703.46 2.62
6/23/2018 12.14 21.7 4 46.38 0 702.08 2.57
6/24/2018 11.24 18.9 4.3 55.25 0 702.58 1.9
6/25/2018 11.8 17.3 7.2 58.83 0 702.96 1.77
6/26/2018 11.63 18.3 8 63.21 0.1 702.82 1.48
6/27/2018 11.39 21.2 3 53.13 0 702.07 2.04
6/28/2018 11.57 20.9 4.3 48.33 0 702.49 2.4
6/29/2018 12.06 21 6.1 44 0 702.68 2.63
6/30/2018 11.87 21.2 4.4 43.5 0 702.54 2.6
7/1/2018 11.86 21.5 3.8 43.38 0 702 2.58
7/2/2018 11.67 22.3 3.4 43.54 0 701.86 2.61
7/3/2018 11.74 21.2 5 44.67 0 702.18 2.84
7/4/2018 11.5 19.5 3.5 50.25 0 702.45 2.61
7/5/2018 13.14 20.9 7.7 51.92 0 702.54 1.55
7/6/2018 12.87 22.7 5 48.67 0 702.4 2.26
7/7/2018 12.11 21.8 4.2 43.13 0 702.47 2.73
7/8/2018 11.33 21.4 2.5 33.58 0 703.35 3.03
7/9/2018 12.48 21 5.8 47.25 0 703.88 2.66
7/10/2018 12.69 17.7 9.4 55.21 0 703.13 2.3
7/11/2018 11.93 17.6 8 66.54 1.4 702.78 2.18
7/12/2018 11.51 16.5 6.6 58.17 0 703.22 1.45
7/13/2018 11.89 16.9 7.6 51.46 0 703.85 2.09
7/14/2018 12.25 20.3 6.2 49.54 0 703.51 2.31
7/15/2018 11.76 21.2 5 48.92 0 703.22 2.26
7/16/2018 11.91 17.8 5.7 47.38 0 703.95 2.5
7/17/2018 15.01 20 8.8 38.44 0 703.4 3.24
7/18/2018 12.08 17.1 7.9 59.5 0 702.89 1.45
7/19/2018 12.67 19.1 8.5 56.21 0 702.04 2.26
7/20/2018 13.24 20.8 8.4 52.35 0 701.82 2.48
7/21/2018 11.81 18.5 8.3 73.17 2.2 702.55 2.4
7/22/2018 12.73 20.5 5.2 62.25 0 702.42 2.2
7/23/2018 13.13 22.1 7 58.67 0.7 703.24 2.38
7/24/2018 12.95 21.6 7.1 52.46 0.1 704.09 2.14
7/25/2018 12.48 21.4 5.3 47.71 0 703.89 2.25
7/26/2018 12.12 21.5 4.4 46.92 0 703.77 2.44
7/27/2018 12.54 22.2 4.9 43.58 0 703.54 2.24
7/28/2018 12.52 22.9 4.4 37.71 0 702.9 2.43
7/29/2018 12.45 22.3 4.6 36.96 0 702.68 2.71
7/30/2018 11.58 19.5 7.6 40.46 0 702.93 2.09
7/31/2018 12.98 22 4.9 35.75 0 702.34 2.49
8/1/2018 12.03 21.4 9 56.75 1 702.93 1.79
8/2/2018 10.95 18.6 5.7 66.46 0 702.99 1.48
8/3/2018 12.62 21.5 8 53.83 0 701.88 2.75
8/4/2018 13.81 22.1 6.8 44.71 0 701.37 1.91
8/5/2018 15.03 21.5 9.8 43 0 700.94 3.66
8/6/2018 14.65 21.8 10 47.38 0 701.85 3.29
8/7/2018 13.42 20.5 9.3 51.63 0 702.94 2.62
8/8/2018 10.39 16.2 7.2 73 2.2 705 1.85
8/9/2018 11.31 18.8 6.2 58.21 0 704.98 2.31
8/10/2018 11.27 18.1 7.1 55.58 0 704.8 2.9
8/11/2018 11.22 20.2 4.2 50.88 0 704.35 2.56
8/12/2018 11.63 21.1 4.2 44.67 0 704.45 3.24
8/13/2018 12.5 22.3 3.9 39.21 0 702.99 2.79
8/14/2018 13.2 22 6.1 39.63 0 702.15 3.33
8/15/2018 13.96 21.1 6.6 43.79 0 702.66 2.54
8/16/2018 12.29 16.1 9.3 55.38 0 704.37 2.4
8/17/2018 13.34 20.7 9.3 50.42 0 705.01 2.72
8/18/2018 12.79 22.4 7.6 51.88 0.2 703.71 3.23
8/19/2018 13.8 21.3 8.3 51.08 0 702.64 2.56
8/20/2018 12.95 20.1 8 47.46 0 703.21 2.18
8/21/2018 13.49 21 8.9 50 0 703.45 2.82
8/22/2018 13.03 20.9 8.3 60 1.4 703.55 1.56
8/23/2018 14 23.6 9.3 48.46 0 702.52 3.35
8/24/2018 13.7 22.7 6.5 45.2 0 702.25 4.27
8/25/2018 12.34 20.5 4.7 44.38 0 703.24 3.02
8/26/2018 13.52 22 5.6 43.92 0 703.33 2.88
8/27/2018 13.9 21.1 8.4 48.58 0.1 703 3.76
8/28/2018 12.91 22 6.4 42.21 0 703.17 3.6
8/29/2018 13.18 22.7 4.2 38.67 0 702.82 3.25
8/30/2018 13.85 23.5 6.5 38.13 0 702.31 2.85
8/31/2018 13.76 23.1 5.8 36.5 0 701.88 2.62
9/1/2018 15.34 23.7 7.8 40.88 0 701.45 3.13
9/2/2018 13.93 22 9.2 48.67 0.1 701.89 3.1
9/3/2018 12.58 18.6 7.7 51.25 0 702.63 2.87
9/4/2018 12.89 21.7 5.5 43.71 0 703.09 3.03
9/5/2018 13.93 22.3 6.6 38.96 0 701.96 3.41
9/6/2018 13.14 23.8 4.4 24 0 702.56 3.22
9/7/2018 13.32 23 5.3 20.29 0 702.76 3.37
9/8/2018 13.36 24.2 5.3 28.75 0 702.73 3.33
9/9/2018 13.77 24.1 4.3 35.67 0 702.41 3.53
9/10/2018 13.53 19.4 6.6 43.21 0 702.84 2.61
9/11/2018 12.37 20 7.7 45.75 0 703.03 2.16
9/12/2018 13.97 23.7 5.5 40.46 0 702 3.33
9/13/2018 14.1 22.1 6.3 41.38 0 701.04 2.25
9/14/2018 14.55 22.4 8.1 39.58 0 700.63 2.58
9/15/2018 13.19 19.8 8.4 51.58 0 701.13 2.71
9/16/2018 13.94 22.3 8.7 54.83 0 701.53 2.24
9/17/2018 14.46 23.1 9.8 53.17 0.2 701.62 2.8
9/18/2018 9.71 15.1 7.9 81.83 7.1 703.03 1.62
9/19/2018 10.76 19.1 5.2 68.92 12.5 702.36 2.3
9/20/2018 12.41 19.7 6 59.5 0.1 702.36 2.57
9/21/2018 11.71 19.1 6.8 62.08 1.4 702.81 2.11
9/22/2018 13.86 21 6.6 52.13 0 701.82 2.25
9/23/2018 14.06 22 8.5 56.13 3.1 701.29 2.33
9/24/2018 12.78 19.7 8.5 58.71 0 702.46 2.43
9/25/2018 11.32 17.8 7 56.63 0 702.47 3.02
9/26/2018 12.23 20.9 8.9 65 0.2 702.15 2.04
9/27/2018 12.35 18.5 8.3 59.71 0.1 702.18 2.48
9/28/2018 14.16 22.6 6.3 53.63 0.1 701.85 2.64
9/29/2018 16.24 24.2 9.5 45.88 0 700.78 2.96
9/30/2018 14.78 24 10.9 56.38 9.7 700.95 1.8
10/1/2018 12.12 17.2 9 64.71 1.8 702.4 1.69
10/2/2018 13.07 19.3 6.2 53.63 0 701.86 1.38
10/3/2018 13.85 19.9 9.3 62.21 0.6 701.6 1.72
10/4/2018 13.7 20.1 9.3 61 1.6 701.78 2.66
10/5/2018 11.22 14.4 8.7 78.67 2.4 702.8 0.69
10/6/2018 13.85 21.4 9.6 66.17 1 701.94 2.41
10/7/2018 15.04 23.2 9.5 59.67 0.7 701.65 2.5
10/8/2018 15.91 23.9 9.5 41.58 0 701.15 3
10/9/2018 15 23.5 8.8 39.39 0 701.12 3.1
10/10/2018 13.72 22.2 10.3 62.75 0.3 701.06 2.64
10/11/2018 13.33 22.2 7.3 52.58 0.2 701.36 1.95
10/12/2018 12.85 19.7 8.7 54.42 0.1 701.86 1.91
10/13/2018 10.8 18 8.5 78.58 7.8 702.92 1.57
10/14/2018 11.3 14.8 8.7 78.08 0.6 702.98 1.09
10/15/2018 13.66 20.5 9.8 65.79 1.6 702.33 2.65
10/16/2018 12.52 19.9 9.3 73.25 6.1 701.92 2.4
10/17/2018 11.55 17 8.1 77.25 7.7 701.8 1.64
10/18/2018 10.66 18.3 8 79.08 3.3 702.51 1.13
10/19/2018 12.08 21.2 8.2 70.92 3.6 701.75 1.6
10/20/2018 12.29 22.7 7.9 71.5 9.6 701 1.42
10/21/2018 9.78 13 8.4 82.83 7.3 701.41 1.94
10/22/2018 11.43 18.2 6.8 75.54 1 701 1.47
10/23/2018 13.54 19.7 9.1 69.92 0 700.66 1.5
10/24/2018 12.73 19 9.3 73.58 1 701.39 1.88
10/25/2018 14.37 20.7 10 67.14 1 700.86 2.36
10/26/2018 13.81 21.8 9.3 68.79 0.3 700.93 2.75
10/27/2018 13.06 19.5 9.7 70.46 0.2 702.08 2.61
10/28/2018 12.76 21 9 68.71 2.1 702.05 2.13
10/29/2018 12.7 19.5 7.9 64 0 701.55 2.24
10/30/2018 12.53 19.9 9.2 71.08 0.6 702.3 2.15
10/31/2018 11.03 16.9 8.4 80.08 4.3 703.47 1.78
11/1/2018 11.15 17.1 8.5 79.5 3.1 703.03 1.42
11/2/2018 12.3 20.9 6.9 66.71 0 702.16 1.48
11/3/2018 13.73 21.1 9.6 64.46 0 701.09 2.18
11/4/2018 13.32 23.4 8 60.29 0 700.71 2.82
11/5/2018 14.92 23.9 7.4 43.71 0 700 2.4
11/6/2018 13.82 22.9 8.2 53.38 1.3 700.28 2.43
11/7/2018 11.54 16.5 8.4 75.92 3.9 701.39 1.27
11/8/2018 12.59 18.7 9.1 74.54 1.6 701.38 1.8
11/9/2018 13.13 19.2 9.8 69.54 2 701.25 1.71
11/10/2018 13.45 21.3 6.9 63.92 0.1 700.75 1.38
11/11/2018 11.74 20.3 8.3 77.42 8.7 701.62 1.59
11/12/2018 14.82 22.9 6.8 57.83 0 700.41 2.25
11/13/2018 15.46 25.2 9.1 52.21 0 700.65 2.55
11/14/2018 15.84 22.5 10 56.79 0 700.83 2.29
11/15/2018 15.36 10.7 66.37 0.8 700.47 2.91
Direccion
del
Viento
347
180
346
356
145
8
338
352
180
11
343
182
161
144
358
6
160
12
357
350
21
101
8
132
340
350
350
176
1
182
170
9
346
3
86
156
14
358
333
-999
180
6
16
180
180
180
352
6
175
180
2
59
151
158
346
342
139
2
358
156
13
180
180
111
180
358
352
143
337
347
6
318
142
352
173
182
9
235
167
2
4
157
173
120
143
180
136
351
180
180
354
240
180
140
180
351
27
133
8
1
358
334
339
346
345
353
318
345
180
163
154
346
180
180
305
180
141
141
168
145
172
183
116
85
118
180
180
180
150
187
2
138
338
149
346
164
158
154
186
47
144
97
108
283
356
175
172
342
134
180
140
57
344
354
19
80
150
345
101
352
357
6
160
247
1
351
344
20
177
11
34
43
146
146
343
132
346
108
134
14
180
176
342
345
136
151
348
161
157
357
131
138
180
357
2
130
180
354
353
156
131
353
139
171
116
355
137
173
152
355
104
181
14
350
8
353
117
357
5
358
145
136
163
136
338
124
54
146
342
114
109
359
168
348
351
41
329
46
344
352
66
344
142
338
338
171
166
163
180
185
4
15
180
182
140
132
11
33
132
13
344
128
153
133
153
342
353
111
338
338
353
180
320
5
122
4
339
1
343
353
6
134
144
133
336
135
344
120
89
354
340
13
130
357
338

349
180
171

158
350
180
354
129
349
172
136
195
180
169
173
327
147
12
10
180
271
-999
344
321
21
188
359
346
4
149
191
21
324
353
116
354
151
148
180
334
180
152
144
352
169
178
4
21
180
136
133
180
180
180
129
180
7
131
164
140
176
180
146
5
152
19
342
345
180
340
191
180
177
180
8
6
16
7
180
143
148
142
140
180
180
359
172
7
354
139
210
1
4
70
70
167
149
183
169
122
340
182
178
319
77
6
169
332
2
161
27
162
154
157
162
163
4
150
15
175
18
43
189
165
230
9
158
348
141
345
162
347
199
153
138
53
358
2
348
115
12
21
357
9
4
131
131
12
152
358
357
11
159
187
186
20
32
335
18
353
30
159
11
10
356
328
278
80
1
353
285
135
154
12
162

244
14
177
146
169
179
231
147
176
348
352
154
159
358
30
347
4
157
178
178
326
196
151
172
62
358
152
355
1
342
161
172
19
186
359
9
169
18
349
335
203
148
130
146
144
157
341
352
9
86
38
112
181
6
104
351
23
19
355
2
167
140
157
356
153
359
351
351
345
359
358
168
20
12
18
106
161
125
11
148
3
4
143
338
162
159
355
355
184
337
357
7
353
151
165
157
341
357
144
158
141
156
148
139
1
168
3
148
349
151
172
6
140
1
142
355
154
350
142
146
354
156
356
357
13
10
15
7
149
155
147
146
16
358
140
134
354
146
142
143
154
159
10
49
46
16
359
57
352
14
166
154
161
2
18
154
138
4
350
19
2
156
123
153
153
112
354
216
349
124
143
189
161
174
347
25
348
358
5
359
26
163
192
354
342
109
13
346
167
332
171
175
201
18
337
157
13
76
78
356
146
6
170
55
152
7
175
185
163
97
175
26
359
193
356
193
28
163
357
357
176
33
19
7
4
138
177
173
148
156
350
10
311
344
154
-999
153
209
342
10
179
195
173
170
359
139
172
153
6
145
107
348
163
171
19
7
179
308
144
145
128
16
3
160
112
11
208
176
161
160

168
157
287
337
111
178
351
291
4
16
116
179
2
359
141
2
171
71
28

17
161
163
125
134
165
140
143
150
91
343
98
192
345
146
4
6
13
141
329
166
6
178
156
6
181

7
15
352
326
10
215
154
72
355
338
187
172
172
185
184
352
176
186
188
14
7
172
347
3
207
117
150
175
154
168
202
345
157
23
184
345
172
6
24
344
350
351
178
343
354
7
16
12
164
183
149
3
167
355
11
139
136
143
344
347
351
141
145
88
47
358
7
12
160
19
14
180
176
36
84
126
10
168
356
181
20
344
171
142
336
152
176
134
104
61
1
179
178
18
16
132
130
16
351
14
160
344
38
144
159
14
143
154
353
174
147
175
351
179
131
3
160
136
357
137
147
146
344
12
6
165
10
32
5
355
76
166
333
153
145
137
140
4
141
169
349
51
147
161
45
40
326
154
125
329
137
350
149
135
167
28

354
355
136
138
150
130
134
9
144
15
145
136
185
350
180
137
133
177
114
9
128
125
345
74
162
346
351
102
356
348
352
49
346
5
168
123
131
340
346
15
357
11
358
337
4
17
97
354
8

130
139
137
359
359
15
163
45
175
357
338
352
142
1
174
177
137

104
109
341
349
173
38
144
13
341
5
3
82
175
162
113
359
133
346
54
71
143
153
156
142
359
17
168
47
26
356
116
135
355
3
145
342
156
156
2
160
357
2
173
180
343
145
18
138
135
163
7
341
16
186
325
189
351
150
156
13
225
126
18
130
140
140
173
3
344
348
346
338
356
13
344
350
15
338
191
351
348
130
200
140
29
342
335
175
143
157
178
9
3
194
142
325
173
353
176
339
347
15
170
155
79
352
6
14
316
356
253
170
353
333
10
359
342
9
346
350
186

176
342
1
177
179
20
85
353
20
2
11
348
178
26
1
19

159
354
197
348
102
186
168
151
358
166
170
29
136
354
349
213
16
8
171
350
86
10
350
6
348
342
28
141
145
57
10
182
170
10
139
354
353
350
245
143
172
193
353
140
7
351
10
170
11
130
-999
152
153
19
14
8
7
166
348
359
343
8
25
170
2
137
139
131
351
136
131
169
129
154
129
128
8
135
174
13
350
345
165
21
345
16
9
143
169
345
358
136
350
343
14
6
342
155
167
37
158
182
28
71
163
160
344
2
47
206
141
176
179
16
344
346
137
357
3
174
147
180
196
192
332
181

161
4
156
182
353
23
10
169
354
179
6
184
153
10
138
137
137
7
1
348
345
16
189
172
25
177
351
197
11
11
352
156
185
172
171
183
356
353
9
9

16
343
7
178
355
141
8
8
125
135
15
184
194
172
311
11
195
344
134
2
177
155
1
355
148
154
170
134
357
175
131
354
186
354
24
345
164
343
352
354
177
4
144
27
176
22
354
32
163
164
183
349
29
10
191
177
187
2
16
75
155
339
202
348
176
12
344
1
201
358
346
357
77
7
160
347
170
349
354
181
342
4

353
23
184
307
199
344
6
356
197
144
222
7
166
137
356
144
14
155
154
169
25
133
149
336
10
346
153
3
179
168
107
187
338
341
43
126
46
178
173
130
165
54
337
337
9
357
193
358
10
188
190
171
35
27
347
351
358
21
357
4
1
344
12
181
173
175
5
6
134
1
25
43
178
26
142
18
22
112
347
189
355
31
159
234
316
143
347
176
6
146
11
358
16
163
349
132
16
183
17
176
188
28
147
178
179
343
7
58
331
124
328
5
29
282
1
351
354
5
62
1
6
348
131
348
183
308
182
151
144
189
12
173
129
139
329
136
169
161
3
12
140
153
346
179
152
351
348
349
354
334
358
127
167
149
129
127
132
139
204
354
35
157
127
140
349
358
352
127
133
1
134
6
182
8
351
36
140
357
150
7
45
351
163
355
342
2
343
161
164
154
61
352
347

167
138
1
75
295
133
5
37
350
4
344
5
130
162
358
141
20
17
83
174
109
165
356
49
5
356
38
324
357
4
355
353
349
17
191
174
16
348
13
132
139
9
140
132
5
10
1
359
17
3
136
132
155
334
60
350
137
143
148
355
139
10
100
343
133
128
29
125
179
147
135
137
83
345
131
30
328
188
286
6
328
175
4
344
354
190
18
352
346
340
4
178
160
161
338
163
12
176
358
110
2
6
177
171
354
12
144
125
327